<?xml version="1.0" encoding="UTF-8"?>
<gpx xmlns="http://www.topografix.com/GPX/1/1" xmlns:gpsies="http://www.gpsies.com/GPX/1/0" creator="GPSies http://www.gpsies.com - GBI Toscana 2018 Day 1 Track 1 final (Pisa-Lucca)" version="1.1" xmlns:xsi="http://www.w3.org/2001/XMLSchema-instance" xsi:schemaLocation="http://www.topografix.com/GPX/1/1 http://www.topografix.com/GPX/1/1/gpx.xsd http://www.gpsies.com/GPX/1/0 http://www.gpsies.com/gpsies.xsd">
  <metadata>
    <name>GBIIT21 D1 T1</name>
    <author>
      <name>TOAO</name>
      <link href="http://www.gpsies.com/mapUser.do?username=TOAO">
        <text>TOAO on GPSies.com</text>
        <type>GPSiesUserOnWeb</type>
      </link>
    </author>
    <link href="http://www.gpsies.com/map.do?fileId=kyyfutasjgzyzodq">
      <text>GBIIT21 D1 T1</text>
      <type>trackOnWeb</type>
    </link>
    <time>2018-03-27T18:06:00Z</time>
    <extensions>
      <gpsies:property>one-way trip</gpsies:property>
      <gpsies:trackLengthMeter>90740.25867258085</gpsies:trackLengthMeter>
      <gpsies:totalAscentMeter>710.0</gpsies:totalAscentMeter>
      <gpsies:totalDescentMeter>702.0</gpsies:totalDescentMeter>
      <gpsies:minHeightMeter>-1.0</gpsies:minHeightMeter>
      <gpsies:maxHeightMeter>219.0</gpsies:maxHeightMeter>
    </extensions>
  </metadata>
  <wpt lat="43.70551108" lon="10.43885707">
    <ele>5.0000000</ele>
    <name>Hotel San Ranieri/Tourstart</name>
    <sym>generic</sym>
    <type>Generic</type>
  </wpt>
  <wpt lat="43.72296315" lon="10.39662837">
    <ele>9.0000000</ele>
    <name>Leaning Tower</name>
    <sym>sightseeing</sym>
    <type>Sightseeing</type>
  </wpt>
  <wpt lat="43.84673407" lon="10.50769329">
    <ele>22.000000</ele>
    <name>Pedestrian area, walk the bike!</name>
    <sym>attention</sym>
    <type>Attention</type>
  </wpt>
  <wpt lat="43.83461578" lon="10.48754990">
    <ele>12.000000</ele>
    <name>Villa Corte degli Dei</name>
    <sym>hostel</sym>
    <type>Hostel</type>
  </wpt>
  <trk>
    <name>GBIIT21 D1 T1</name>
    <link href="http://www.gpsies.com/map.do?fileId=kyyfutasjgzyzodq">
      <type>trackOnWeb</type>
    </link>
    <link href="http://www.gpsies.com/charts/ky/map/kyyfutasjgzyzodq_map.png">
      <type>elevationChartUrlMap</type>
    </link>
    <link href="http://www.gpsies.com/charts/ky/mapThumb/kyyfutasjgzyzodq_mapThumb.png">
      <type>elevationChartUrlMapThumb</type>
    </link>
    <link href="http://www.gpsies.com/charts/ky/tab/kyyfutasjgzyzodq_tab.png">
      <type>elevationChartUrlTab</type>
    </link>
    <trkseg>
      <trkpt lat="43.70568780" lon="10.43860850">
        <ele>7.0000000</ele>
        <time>2010-01-01T00:00:00Z</time>
      </trkpt>
      <trkpt lat="43.70510770" lon="10.43915210">
        <ele>3.0000000</ele>
        <time>2010-01-01T00:00:28Z</time>
      </trkpt>
      <trkpt lat="43.70647660" lon="10.44055220">
        <ele>4.0000000</ele>
        <time>2010-01-01T00:01:36Z</time>
      </trkpt>
      <trkpt lat="43.70613540" lon="10.44119590">
        <ele>5.0000000</ele>
        <time>2010-01-01T00:01:59Z</time>
      </trkpt>
      <trkpt lat="43.70583680" lon="10.44132470">
        <ele>7.0000000</ele>
        <time>2010-01-01T00:02:11Z</time>
      </trkpt>
      <trkpt lat="43.70567000" lon="10.44119590">
        <ele>5.0000000</ele>
        <time>2010-01-01T00:02:19Z</time>
      </trkpt>
      <trkpt lat="43.70555760" lon="10.44141590">
        <ele>6.0000000</ele>
        <time>2010-01-01T00:02:27Z</time>
      </trkpt>
      <trkpt lat="43.70565840" lon="10.44163040">
        <ele>8.0000000</ele>
        <time>2010-01-01T00:02:34Z</time>
      </trkpt>
      <trkpt lat="43.70584070" lon="10.44152850">
        <ele>8.0000000</ele>
        <time>2010-01-01T00:02:42Z</time>
      </trkpt>
      <trkpt lat="43.70615480" lon="10.44134080">
        <ele>7.0000000</ele>
        <time>2010-01-01T00:02:56Z</time>
      </trkpt>
      <trkpt lat="43.70671320" lon="10.44032690">
        <ele>4.0000000</ele>
        <time>2010-01-01T00:03:33Z</time>
      </trkpt>
      <trkpt lat="43.70755470" lon="10.43790750">
        <ele>5.0000000</ele>
        <time>2010-01-01T00:04:50Z</time>
      </trkpt>
      <trkpt lat="43.70788040" lon="10.43761250">
        <ele>7.0000000</ele>
        <time>2010-01-01T00:05:06Z</time>
      </trkpt>
      <trkpt lat="43.70784160" lon="10.43703310">
        <ele>4.0000000</ele>
        <time>2010-01-01T00:05:23Z</time>
      </trkpt>
      <trkpt lat="43.71080420" lon="10.42875050">
        <ele>3.0000000</ele>
        <time>2010-01-01T00:09:50Z</time>
      </trkpt>
      <trkpt lat="43.71095930" lon="10.42862170">
        <ele>3.0000000</ele>
        <time>2010-01-01T00:09:57Z</time>
      </trkpt>
      <trkpt lat="43.71109890" lon="10.42845010">
        <ele>3.0000000</ele>
        <time>2010-01-01T00:10:05Z</time>
      </trkpt>
      <trkpt lat="43.71334780" lon="10.42832130">
        <ele>5.0000000</ele>
        <time>2010-01-01T00:11:35Z</time>
      </trkpt>
      <trkpt lat="43.71353400" lon="10.42833200">
        <ele>5.0000000</ele>
        <time>2010-01-01T00:11:42Z</time>
      </trkpt>
      <trkpt lat="43.71359600" lon="10.42820870">
        <ele>5.0000000</ele>
        <time>2010-01-01T00:11:47Z</time>
      </trkpt>
      <trkpt lat="43.71355720" lon="10.42809600">
        <ele>4.0000000</ele>
        <time>2010-01-01T00:11:50Z</time>
      </trkpt>
      <trkpt lat="43.71446840" lon="10.42530110">
        <ele>4.0000000</ele>
        <time>2010-01-01T00:13:19Z</time>
      </trkpt>
      <trkpt lat="43.71497630" lon="10.42159430">
        <ele>7.0000000</ele>
        <time>2010-01-01T00:15:08Z</time>
      </trkpt>
      <trkpt lat="43.71608520" lon="10.42191080">
        <ele>5.0000000</ele>
        <time>2010-01-01T00:15:54Z</time>
      </trkpt>
      <trkpt lat="43.71654660" lon="10.42188940">
        <ele>4.0000000</ele>
        <time>2010-01-01T00:16:12Z</time>
      </trkpt>
      <trkpt lat="43.71708560" lon="10.42165870">
        <ele>5.0000000</ele>
        <time>2010-01-01T00:16:35Z</time>
      </trkpt>
      <trkpt lat="43.71837670" lon="10.42025320">
        <ele>3.0000000</ele>
        <time>2010-01-01T00:17:40Z</time>
      </trkpt>
      <trkpt lat="43.71890780" lon="10.42011380">
        <ele>3.0000000</ele>
        <time>2010-01-01T00:18:02Z</time>
      </trkpt>
      <trkpt lat="43.71941960" lon="10.42032830">
        <ele>4.0000000</ele>
        <time>2010-01-01T00:18:23Z</time>
      </trkpt>
      <trkpt lat="43.71977630" lon="10.42062340">
        <ele>4.0000000</ele>
        <time>2010-01-01T00:18:40Z</time>
      </trkpt>
      <trkpt lat="43.72059050" lon="10.42168020">
        <ele>2.0000000</ele>
        <time>2010-01-01T00:19:25Z</time>
      </trkpt>
      <trkpt lat="43.72060600" lon="10.42188940">
        <ele>2.0000000</ele>
        <time>2010-01-01T00:19:31Z</time>
      </trkpt>
      <trkpt lat="43.72078040" lon="10.42186260">
        <ele>2.0000000</ele>
        <time>2010-01-01T00:19:38Z</time>
      </trkpt>
      <trkpt lat="43.72071060" lon="10.42159970">
        <ele>2.0000000</ele>
        <time>2010-01-01T00:19:46Z</time>
      </trkpt>
      <trkpt lat="43.72086180" lon="10.42099350">
        <ele>2.0000000</ele>
        <time>2010-01-01T00:20:05Z</time>
      </trkpt>
      <trkpt lat="43.72029580" lon="10.41979190">
        <ele>4.0000000</ele>
        <time>2010-01-01T00:20:46Z</time>
      </trkpt>
      <trkpt lat="43.71991590" lon="10.41688440">
        <ele>4.0000000</ele>
        <time>2010-01-01T00:22:12Z</time>
      </trkpt>
      <trkpt lat="43.71988870" lon="10.41619770">
        <ele>5.0000000</ele>
        <time>2010-01-01T00:22:31Z</time>
      </trkpt>
      <trkpt lat="43.71986550" lon="10.41523210">
        <ele>4.0000000</ele>
        <time>2010-01-01T00:22:59Z</time>
      </trkpt>
      <trkpt lat="43.71961340" lon="10.41249090">
        <ele>10.000000</ele>
        <time>2010-01-01T00:24:19Z</time>
      </trkpt>
      <trkpt lat="43.71969100" lon="10.41234070">
        <ele>10.000000</ele>
        <time>2010-01-01T00:24:25Z</time>
      </trkpt>
      <trkpt lat="43.71997400" lon="10.41221730">
        <ele>8.0000000</ele>
        <time>2010-01-01T00:24:37Z</time>
      </trkpt>
      <trkpt lat="43.71989260" lon="10.41202420">
        <ele>8.0000000</ele>
        <time>2010-01-01T00:24:43Z</time>
      </trkpt>
      <trkpt lat="43.72005540" lon="10.41185250">
        <ele>6.0000000</ele>
        <time>2010-01-01T00:24:51Z</time>
      </trkpt>
      <trkpt lat="43.72017950" lon="10.41183110">
        <ele>5.0000000</ele>
        <time>2010-01-01T00:24:56Z</time>
      </trkpt>
      <trkpt lat="43.72018340" lon="10.41166480">
        <ele>5.0000000</ele>
        <time>2010-01-01T00:25:01Z</time>
      </trkpt>
      <trkpt lat="43.72004770" lon="10.41163260">
        <ele>6.0000000</ele>
        <time>2010-01-01T00:25:07Z</time>
      </trkpt>
      <trkpt lat="43.71878380" lon="10.41046850">
        <ele>8.0000000</ele>
        <time>2010-01-01T00:26:07Z</time>
      </trkpt>
      <trkpt lat="43.71853170" lon="10.40736250">
        <ele>8.0000000</ele>
        <time>2010-01-01T00:27:38Z</time>
      </trkpt>
      <trkpt lat="43.71950100" lon="10.40741080">
        <ele>9.0000000</ele>
        <time>2010-01-01T00:28:17Z</time>
      </trkpt>
      <trkpt lat="43.71974140" lon="10.40735720">
        <ele>9.0000000</ele>
        <time>2010-01-01T00:28:26Z</time>
      </trkpt>
      <trkpt lat="43.71973360" lon="10.40561370">
        <ele>9.0000000</ele>
        <time>2010-01-01T00:29:17Z</time>
      </trkpt>
      <trkpt lat="43.71971430" lon="10.40354310">
        <ele>14.000000</ele>
        <time>2010-01-01T00:30:17Z</time>
      </trkpt>
      <trkpt lat="43.71966000" lon="10.40219120">
        <ele>12.000000</ele>
        <time>2010-01-01T00:30:56Z</time>
      </trkpt>
      <trkpt lat="43.71968320" lon="10.40164940">
        <ele>12.000000</ele>
        <time>2010-01-01T00:31:12Z</time>
      </trkpt>
      <trkpt lat="43.71936920" lon="10.40053360">
        <ele>12.000000</ele>
        <time>2010-01-01T00:31:46Z</time>
      </trkpt>
      <trkpt lat="43.71959020" lon="10.39985770">
        <ele>10.000000</ele>
        <time>2010-01-01T00:32:08Z</time>
      </trkpt>
      <trkpt lat="43.71964060" lon="10.39948760">
        <ele>9.0000000</ele>
        <time>2010-01-01T00:32:19Z</time>
      </trkpt>
      <trkpt lat="43.71984990" lon="10.39881160">
        <ele>8.0000000</ele>
        <time>2010-01-01T00:32:40Z</time>
      </trkpt>
      <trkpt lat="43.71991200" lon="10.39827520">
        <ele>11.000000</ele>
        <time>2010-01-01T00:32:56Z</time>
      </trkpt>
      <trkpt lat="43.71991970" lon="10.39776020">
        <ele>10.000000</ele>
        <time>2010-01-01T00:33:10Z</time>
      </trkpt>
      <trkpt lat="43.72073390" lon="10.39778700">
        <ele>9.0000000</ele>
        <time>2010-01-01T00:33:43Z</time>
      </trkpt>
      <trkpt lat="43.72107510" lon="10.39774410">
        <ele>9.0000000</ele>
        <time>2010-01-01T00:33:57Z</time>
      </trkpt>
      <trkpt lat="43.72129220" lon="10.39766370">
        <ele>10.000000</ele>
        <time>2010-01-01T00:34:06Z</time>
      </trkpt>
      <trkpt lat="43.72169150" lon="10.39758320">
        <ele>11.000000</ele>
        <time>2010-01-01T00:34:22Z</time>
      </trkpt>
      <trkpt lat="43.72239320" lon="10.39771730">
        <ele>8.0000000</ele>
        <time>2010-01-01T00:34:50Z</time>
      </trkpt>
      <trkpt lat="43.72240480" lon="10.39654790">
        <ele>8.0000000</ele>
        <time>2010-01-01T00:35:24Z</time>
      </trkpt>
      <trkpt lat="43.72280800" lon="10.39635470">
        <ele>12.000000</ele>
        <time>2010-01-01T00:35:41Z</time>
      </trkpt>
      <trkpt lat="43.72315310" lon="10.39646200">
        <ele>11.000000</ele>
        <time>2010-01-01T00:35:55Z</time>
      </trkpt>
      <trkpt lat="43.72315310" lon="10.39716480">
        <ele>5.0000000</ele>
        <time>2010-01-01T00:36:16Z</time>
      </trkpt>
      <trkpt lat="43.72233120" lon="10.40105930">
        <ele>9.0000000</ele>
        <time>2010-01-01T00:38:13Z</time>
      </trkpt>
      <trkpt lat="43.72215670" lon="10.40169770">
        <ele>8.0000000</ele>
        <time>2010-01-01T00:38:33Z</time>
      </trkpt>
      <trkpt lat="43.72284680" lon="10.40177820">
        <ele>6.0000000</ele>
        <time>2010-01-01T00:39:00Z</time>
      </trkpt>
      <trkpt lat="43.72318020" lon="10.40197130">
        <ele>6.0000000</ele>
        <time>2010-01-01T00:39:15Z</time>
      </trkpt>
      <trkpt lat="43.72347480" lon="10.40226100">
        <ele>5.0000000</ele>
        <time>2010-01-01T00:39:29Z</time>
      </trkpt>
      <trkpt lat="43.72421140" lon="10.40237900">
        <ele>3.0000000</ele>
        <time>2010-01-01T00:39:59Z</time>
      </trkpt>
      <trkpt lat="43.72615750" lon="10.40253990">
        <ele>4.0000000</ele>
        <time>2010-01-01T00:41:17Z</time>
      </trkpt>
      <trkpt lat="43.73290240" lon="10.40297980">
        <ele>8.0000000</ele>
        <time>2010-01-01T00:45:47Z</time>
      </trkpt>
      <trkpt lat="43.73384820" lon="10.40059800">
        <ele>2.0000000</ele>
        <time>2010-01-01T00:47:06Z</time>
      </trkpt>
      <trkpt lat="43.73913500" lon="10.40117740">
        <ele>1.0000000</ele>
        <time>2010-01-01T00:50:38Z</time>
      </trkpt>
      <trkpt lat="43.74018920" lon="10.40154210">
        <ele>2.0000000</ele>
        <time>2010-01-01T00:51:22Z</time>
      </trkpt>
      <trkpt lat="43.74229750" lon="10.40208930">
        <ele>1.0000000</ele>
        <time>2010-01-01T00:52:48Z</time>
      </trkpt>
      <trkpt lat="43.75078440" lon="10.40498610">
        <ele>2.0000000</ele>
        <time>2010-01-01T00:58:38Z</time>
      </trkpt>
      <trkpt lat="43.75155940" lon="10.40516850">
        <ele>0.0000000</ele>
        <time>2010-01-01T00:59:09Z</time>
      </trkpt>
      <trkpt lat="43.75289240" lon="10.40564060">
        <ele>0.0000000</ele>
        <time>2010-01-01T01:00:04Z</time>
      </trkpt>
      <trkpt lat="43.75575200" lon="10.40752880">
        <ele>1.0000000</ele>
        <time>2010-01-01T01:02:11Z</time>
      </trkpt>
      <trkpt lat="43.75785980" lon="10.40958880">
        <ele>2.0000000</ele>
        <time>2010-01-01T01:03:54Z</time>
      </trkpt>
      <trkpt lat="43.76722770" lon="10.41236750">
        <ele>3.0000000</ele>
        <time>2010-01-01T01:10:18Z</time>
      </trkpt>
      <trkpt lat="43.77027250" lon="10.41136980">
        <ele>5.0000000</ele>
        <time>2010-01-01T01:12:23Z</time>
      </trkpt>
      <trkpt lat="43.77090780" lon="10.41089770">
        <ele>3.0000000</ele>
        <time>2010-01-01T01:12:52Z</time>
      </trkpt>
      <trkpt lat="43.77493640" lon="10.41053290">
        <ele>4.0000000</ele>
        <time>2010-01-01T01:15:33Z</time>
      </trkpt>
      <trkpt lat="43.77564910" lon="10.41119810">
        <ele>3.0000000</ele>
        <time>2010-01-01T01:16:08Z</time>
      </trkpt>
      <trkpt lat="43.77673360" lon="10.41287180">
        <ele>4.0000000</ele>
        <time>2010-01-01T01:17:13Z</time>
      </trkpt>
      <trkpt lat="43.77842240" lon="10.41390180">
        <ele>5.0000000</ele>
        <time>2010-01-01T01:18:27Z</time>
      </trkpt>
      <trkpt lat="43.77955330" lon="10.41335460">
        <ele>4.0000000</ele>
        <time>2010-01-01T01:19:15Z</time>
      </trkpt>
      <trkpt lat="43.78042090" lon="10.41439530">
        <ele>7.0000000</ele>
        <time>2010-01-01T01:20:01Z</time>
      </trkpt>
      <trkpt lat="43.78211730" lon="10.41560760">
        <ele>7.0000000</ele>
        <time>2010-01-01T01:21:17Z</time>
      </trkpt>
      <trkpt lat="43.78229540" lon="10.41453480">
        <ele>2.0000000</ele>
        <time>2010-01-01T01:21:49Z</time>
      </trkpt>
      <trkpt lat="43.78316300" lon="10.41075820">
        <ele>7.0000000</ele>
        <time>2010-01-01T01:23:43Z</time>
      </trkpt>
      <trkpt lat="43.78321720" lon="10.40955660">
        <ele>8.0000000</ele>
        <time>2010-01-01T01:24:18Z</time>
      </trkpt>
      <trkpt lat="43.78210950" lon="10.40281890">
        <ele>7.0000000</ele>
        <time>2010-01-01T01:27:38Z</time>
      </trkpt>
      <trkpt lat="43.77997160" lon="10.39966460">
        <ele>9.0000000</ele>
        <time>2010-01-01T01:29:43Z</time>
      </trkpt>
      <trkpt lat="43.78152080" lon="10.39770120">
        <ele>9.0000000</ele>
        <time>2010-01-01T01:31:07Z</time>
      </trkpt>
      <trkpt lat="43.78183070" lon="10.39853810">
        <ele>6.0000000</ele>
        <time>2010-01-01T01:31:34Z</time>
      </trkpt>
      <trkpt lat="43.78201660" lon="10.39969680">
        <ele>7.0000000</ele>
        <time>2010-01-01T01:32:09Z</time>
      </trkpt>
      <trkpt lat="43.78348060" lon="10.40205710">
        <ele>8.0000000</ele>
        <time>2010-01-01T01:33:38Z</time>
      </trkpt>
      <trkpt lat="43.78465790" lon="10.40345190">
        <ele>9.0000000</ele>
        <time>2010-01-01T01:34:40Z</time>
      </trkpt>
      <trkpt lat="43.78534730" lon="10.40377370">
        <ele>12.000000</ele>
        <time>2010-01-01T01:35:10Z</time>
      </trkpt>
      <trkpt lat="43.78581200" lon="10.40465350">
        <ele>7.0000000</ele>
        <time>2010-01-01T01:35:41Z</time>
      </trkpt>
      <trkpt lat="43.78638520" lon="10.40485730">
        <ele>3.0000000</ele>
        <time>2010-01-01T01:36:05Z</time>
      </trkpt>
      <trkpt lat="43.78706680" lon="10.40473930">
        <ele>5.0000000</ele>
        <time>2010-01-01T01:36:32Z</time>
      </trkpt>
      <trkpt lat="43.78830600" lon="10.40411710">
        <ele>7.0000000</ele>
        <time>2010-01-01T01:37:25Z</time>
      </trkpt>
      <trkpt lat="43.78965360" lon="10.40392390">
        <ele>6.0000000</ele>
        <time>2010-01-01T01:38:19Z</time>
      </trkpt>
      <trkpt lat="43.79275160" lon="10.40381660">
        <ele>5.0000000</ele>
        <time>2010-01-01T01:40:23Z</time>
      </trkpt>
      <trkpt lat="43.79443210" lon="10.40411710">
        <ele>9.0000000</ele>
        <time>2010-01-01T01:41:31Z</time>
      </trkpt>
      <trkpt lat="43.79535370" lon="10.40416000">
        <ele>8.0000000</ele>
        <time>2010-01-01T01:42:08Z</time>
      </trkpt>
      <trkpt lat="43.79783950" lon="10.40322660">
        <ele>11.000000</ele>
        <time>2010-01-01T01:43:51Z</time>
      </trkpt>
      <trkpt lat="43.80229210" lon="10.39706820">
        <ele>10.000000</ele>
        <time>2010-01-01T01:48:03Z</time>
      </trkpt>
      <trkpt lat="43.80306650" lon="10.39675710">
        <ele>11.000000</ele>
        <time>2010-01-01T01:48:35Z</time>
      </trkpt>
      <trkpt lat="43.80396470" lon="10.39697170">
        <ele>8.0000000</ele>
        <time>2010-01-01T01:49:12Z</time>
      </trkpt>
      <trkpt lat="43.80469250" lon="10.39750810">
        <ele>10.000000</ele>
        <time>2010-01-01T01:49:45Z</time>
      </trkpt>
      <trkpt lat="43.80592360" lon="10.39764760">
        <ele>9.0000000</ele>
        <time>2010-01-01T01:50:34Z</time>
      </trkpt>
      <trkpt lat="43.80704640" lon="10.39759390">
        <ele>14.000000</ele>
        <time>2010-01-01T01:51:19Z</time>
      </trkpt>
      <trkpt lat="43.80717020" lon="10.39619920">
        <ele>15.000000</ele>
        <time>2010-01-01T01:52:00Z</time>
      </trkpt>
      <trkpt lat="43.80745670" lon="10.39531940">
        <ele>12.000000</ele>
        <time>2010-01-01T01:52:28Z</time>
      </trkpt>
      <trkpt lat="43.80811480" lon="10.39392470">
        <ele>14.000000</ele>
        <time>2010-01-01T01:53:16Z</time>
      </trkpt>
      <trkpt lat="43.80823870" lon="10.39154290">
        <ele>16.000000</ele>
        <time>2010-01-01T01:54:25Z</time>
      </trkpt>
      <trkpt lat="43.80851750" lon="10.38894650">
        <ele>16.000000</ele>
        <time>2010-01-01T01:55:41Z</time>
      </trkpt>
      <trkpt lat="43.80806840" lon="10.38484810">
        <ele>14.000000</ele>
        <time>2010-01-01T01:57:40Z</time>
      </trkpt>
      <trkpt lat="43.80797550" lon="10.38242340">
        <ele>26.000000</ele>
        <time>2010-01-01T01:58:51Z</time>
      </trkpt>
      <trkpt lat="43.80811480" lon="10.37978410">
        <ele>25.000000</ele>
        <time>2010-01-01T02:00:07Z</time>
      </trkpt>
      <trkpt lat="43.80921430" lon="10.37759540">
        <ele>7.0000000</ele>
        <time>2010-01-01T02:01:24Z</time>
      </trkpt>
      <trkpt lat="43.80977170" lon="10.37727350">
        <ele>6.0000000</ele>
        <time>2010-01-01T02:01:48Z</time>
      </trkpt>
      <trkpt lat="43.81042210" lon="10.37710180">
        <ele>7.0000000</ele>
        <time>2010-01-01T02:02:15Z</time>
      </trkpt>
      <trkpt lat="43.81097950" lon="10.37626500">
        <ele>14.000000</ele>
        <time>2010-01-01T02:02:48Z</time>
      </trkpt>
      <trkpt lat="43.81116530" lon="10.37523500">
        <ele>4.0000000</ele>
        <time>2010-01-01T02:03:18Z</time>
      </trkpt>
      <trkpt lat="43.81269830" lon="10.37487030">
        <ele>11.000000</ele>
        <time>2010-01-01T02:04:21Z</time>
      </trkpt>
      <trkpt lat="43.81378210" lon="10.37375450">
        <ele>3.0000000</ele>
        <time>2010-01-01T02:05:15Z</time>
      </trkpt>
      <trkpt lat="43.81420020" lon="10.37372230">
        <ele>4.0000000</ele>
        <time>2010-01-01T02:05:31Z</time>
      </trkpt>
      <trkpt lat="43.81443250" lon="10.37395830">
        <ele>4.0000000</ele>
        <time>2010-01-01T02:05:43Z</time>
      </trkpt>
      <trkpt lat="43.81456410" lon="10.37428020">
        <ele>7.0000000</ele>
        <time>2010-01-01T02:05:54Z</time>
      </trkpt>
      <trkpt lat="43.81720400" lon="10.37376520">
        <ele>5.0000000</ele>
        <time>2010-01-01T02:07:40Z</time>
      </trkpt>
      <trkpt lat="43.81776130" lon="10.37332530">
        <ele>3.0000000</ele>
        <time>2010-01-01T02:08:06Z</time>
      </trkpt>
      <trkpt lat="43.81841930" lon="10.37396900">
        <ele>11.000000</ele>
        <time>2010-01-01T02:08:38Z</time>
      </trkpt>
      <trkpt lat="43.81920890" lon="10.37345400">
        <ele>8.0000000</ele>
        <time>2010-01-01T02:09:13Z</time>
      </trkpt>
      <trkpt lat="43.81985920" lon="10.37283180">
        <ele>6.0000000</ele>
        <time>2010-01-01T02:09:45Z</time>
      </trkpt>
      <trkpt lat="43.82047850" lon="10.37272450">
        <ele>10.000000</ele>
        <time>2010-01-01T02:10:10Z</time>
      </trkpt>
      <trkpt lat="43.82113650" lon="10.37167310">
        <ele>11.000000</ele>
        <time>2010-01-01T02:10:50Z</time>
      </trkpt>
      <trkpt lat="43.82191830" lon="10.37073960">
        <ele>8.0000000</ele>
        <time>2010-01-01T02:11:31Z</time>
      </trkpt>
      <trkpt lat="43.82208860" lon="10.37081480">
        <ele>10.000000</ele>
        <time>2010-01-01T02:11:38Z</time>
      </trkpt>
      <trkpt lat="43.82233630" lon="10.37076110">
        <ele>12.000000</ele>
        <time>2010-01-01T02:11:48Z</time>
      </trkpt>
      <trkpt lat="43.82276200" lon="10.37046070">
        <ele>14.000000</ele>
        <time>2010-01-01T02:12:08Z</time>
      </trkpt>
      <trkpt lat="43.82318000" lon="10.36991350">
        <ele>9.0000000</ele>
        <time>2010-01-01T02:12:31Z</time>
      </trkpt>
      <trkpt lat="43.82371410" lon="10.36943070">
        <ele>5.0000000</ele>
        <time>2010-01-01T02:12:56Z</time>
      </trkpt>
      <trkpt lat="43.82400050" lon="10.36826130">
        <ele>1.0000000</ele>
        <time>2010-01-01T02:13:32Z</time>
      </trkpt>
      <trkpt lat="43.82458110" lon="10.36713480">
        <ele>1.0000000</ele>
        <time>2010-01-01T02:14:12Z</time>
      </trkpt>
      <trkpt lat="43.82619880" lon="10.36658760">
        <ele>4.0000000</ele>
        <time>2010-01-01T02:15:18Z</time>
      </trkpt>
      <trkpt lat="43.82705020" lon="10.36639450">
        <ele>5.0000000</ele>
        <time>2010-01-01T02:15:53Z</time>
      </trkpt>
      <trkpt lat="43.82833510" lon="10.36637300">
        <ele>9.0000000</ele>
        <time>2010-01-01T02:16:44Z</time>
      </trkpt>
      <trkpt lat="43.82862150" lon="10.36628720">
        <ele>12.000000</ele>
        <time>2010-01-01T02:16:56Z</time>
      </trkpt>
      <trkpt lat="43.82927930" lon="10.36567560">
        <ele>13.000000</ele>
        <time>2010-01-01T02:17:28Z</time>
      </trkpt>
      <trkpt lat="43.83016170" lon="10.36444180">
        <ele>14.000000</ele>
        <time>2010-01-01T02:18:18Z</time>
      </trkpt>
      <trkpt lat="43.83105170" lon="10.36358350">
        <ele>23.000000</ele>
        <time>2010-01-01T02:19:01Z</time>
      </trkpt>
      <trkpt lat="43.83136130" lon="10.36272520">
        <ele>14.000000</ele>
        <time>2010-01-01T02:19:29Z</time>
      </trkpt>
      <trkpt lat="43.83181020" lon="10.36225310">
        <ele>9.0000000</ele>
        <time>2010-01-01T02:19:52Z</time>
      </trkpt>
      <trkpt lat="43.83220490" lon="10.36203860">
        <ele>7.0000000</ele>
        <time>2010-01-01T02:20:09Z</time>
      </trkpt>
      <trkpt lat="43.83326520" lon="10.36160940">
        <ele>3.0000000</ele>
        <time>2010-01-01T02:20:53Z</time>
      </trkpt>
      <trkpt lat="43.83424040" lon="10.36187760">
        <ele>6.0000000</ele>
        <time>2010-01-01T02:21:33Z</time>
      </trkpt>
      <trkpt lat="43.83506850" lon="10.36099790">
        <ele>7.0000000</ele>
        <time>2010-01-01T02:22:14Z</time>
      </trkpt>
      <trkpt lat="43.83582690" lon="10.36116950">
        <ele>15.000000</ele>
        <time>2010-01-01T02:22:45Z</time>
      </trkpt>
      <trkpt lat="43.83637640" lon="10.36037560">
        <ele>15.000000</ele>
        <time>2010-01-01T02:23:17Z</time>
      </trkpt>
      <trkpt lat="43.83667820" lon="10.35943150">
        <ele>12.000000</ele>
        <time>2010-01-01T02:23:47Z</time>
      </trkpt>
      <trkpt lat="43.83710380" lon="10.35864830">
        <ele>9.0000000</ele>
        <time>2010-01-01T02:24:15Z</time>
      </trkpt>
      <trkpt lat="43.83732050" lon="10.35762900">
        <ele>8.0000000</ele>
        <time>2010-01-01T02:24:46Z</time>
      </trkpt>
      <trkpt lat="43.83735150" lon="10.35728570">
        <ele>7.0000000</ele>
        <time>2010-01-01T02:24:56Z</time>
      </trkpt>
      <trkpt lat="43.83750620" lon="10.35700670">
        <ele>7.0000000</ele>
        <time>2010-01-01T02:25:06Z</time>
      </trkpt>
      <trkpt lat="43.83794730" lon="10.35659900">
        <ele>16.000000</ele>
        <time>2010-01-01T02:25:27Z</time>
      </trkpt>
      <trkpt lat="43.83833430" lon="10.35564420">
        <ele>14.000000</ele>
        <time>2010-01-01T02:25:59Z</time>
      </trkpt>
      <trkpt lat="43.83823370" lon="10.35502190">
        <ele>8.0000000</ele>
        <time>2010-01-01T02:26:17Z</time>
      </trkpt>
      <trkpt lat="43.83842710" lon="10.35466790">
        <ele>9.0000000</ele>
        <time>2010-01-01T02:26:30Z</time>
      </trkpt>
      <trkpt lat="43.83881410" lon="10.35441040">
        <ele>14.000000</ele>
        <time>2010-01-01T02:26:47Z</time>
      </trkpt>
      <trkpt lat="43.83913910" lon="10.35378810">
        <ele>11.000000</ele>
        <time>2010-01-01T02:27:09Z</time>
      </trkpt>
      <trkpt lat="43.83945640" lon="10.35345550">
        <ele>10.000000</ele>
        <time>2010-01-01T02:27:25Z</time>
      </trkpt>
      <trkpt lat="43.84065200" lon="10.35279030">
        <ele>3.0000000</ele>
        <time>2010-01-01T02:28:17Z</time>
      </trkpt>
      <trkpt lat="43.84072550" lon="10.35298880">
        <ele>3.0000000</ele>
        <time>2010-01-01T02:28:23Z</time>
      </trkpt>
      <trkpt lat="43.84023020" lon="10.35416360">
        <ele>11.000000</ele>
        <time>2010-01-01T02:29:03Z</time>
      </trkpt>
      <trkpt lat="43.84040050" lon="10.35467860">
        <ele>8.0000000</ele>
        <time>2010-01-01T02:29:19Z</time>
      </trkpt>
      <trkpt lat="43.84133680" lon="10.35520430">
        <ele>7.0000000</ele>
        <time>2010-01-01T02:29:59Z</time>
      </trkpt>
      <trkpt lat="43.84190940" lon="10.35567640">
        <ele>3.0000000</ele>
        <time>2010-01-01T02:30:26Z</time>
      </trkpt>
      <trkpt lat="43.84271420" lon="10.35576220">
        <ele>4.0000000</ele>
        <time>2010-01-01T02:30:58Z</time>
      </trkpt>
      <trkpt lat="43.84461780" lon="10.35668490">
        <ele>5.0000000</ele>
        <time>2010-01-01T02:32:19Z</time>
      </trkpt>
      <trkpt lat="43.84528320" lon="10.35672780">
        <ele>7.0000000</ele>
        <time>2010-01-01T02:32:46Z</time>
      </trkpt>
      <trkpt lat="43.84571650" lon="10.35655610">
        <ele>8.0000000</ele>
        <time>2010-01-01T02:33:04Z</time>
      </trkpt>
      <trkpt lat="43.84591770" lon="10.35615920">
        <ele>7.0000000</ele>
        <time>2010-01-01T02:33:18Z</time>
      </trkpt>
      <trkpt lat="43.84591000" lon="10.35554760">
        <ele>5.0000000</ele>
        <time>2010-01-01T02:33:35Z</time>
      </trkpt>
      <trkpt lat="43.84615760" lon="10.35517210">
        <ele>5.0000000</ele>
        <time>2010-01-01T02:33:50Z</time>
      </trkpt>
      <trkpt lat="43.84645930" lon="10.35522580">
        <ele>6.0000000</ele>
        <time>2010-01-01T02:34:02Z</time>
      </trkpt>
      <trkpt lat="43.84691590" lon="10.35555830">
        <ele>11.000000</ele>
        <time>2010-01-01T02:34:23Z</time>
      </trkpt>
      <trkpt lat="43.84751160" lon="10.35550470">
        <ele>11.000000</ele>
        <time>2010-01-01T02:34:47Z</time>
      </trkpt>
      <trkpt lat="43.84775920" lon="10.35527940">
        <ele>10.000000</ele>
        <time>2010-01-01T02:34:59Z</time>
      </trkpt>
      <trkpt lat="43.84803010" lon="10.35474300">
        <ele>5.0000000</ele>
        <time>2010-01-01T02:35:18Z</time>
      </trkpt>
      <trkpt lat="43.84836280" lon="10.35470000">
        <ele>4.0000000</ele>
        <time>2010-01-01T02:35:31Z</time>
      </trkpt>
      <trkpt lat="43.84861810" lon="10.35500040">
        <ele>1.0000000</ele>
        <time>2010-01-01T02:35:44Z</time>
      </trkpt>
      <trkpt lat="43.84861810" lon="10.35574070">
        <ele>4.0000000</ele>
        <time>2010-01-01T02:36:06Z</time>
      </trkpt>
      <trkpt lat="43.84877280" lon="10.35632010">
        <ele>4.0000000</ele>
        <time>2010-01-01T02:36:24Z</time>
      </trkpt>
      <trkpt lat="43.85073810" lon="10.35892720">
        <ele>5.0000000</ele>
        <time>2010-01-01T02:38:12Z</time>
      </trkpt>
      <trkpt lat="43.85168970" lon="10.35980700">
        <ele>5.0000000</ele>
        <time>2010-01-01T02:38:58Z</time>
      </trkpt>
      <trkpt lat="43.85232420" lon="10.36079400">
        <ele>7.0000000</ele>
        <time>2010-01-01T02:39:36Z</time>
      </trkpt>
      <trkpt lat="43.85290440" lon="10.36121240">
        <ele>8.0000000</ele>
        <time>2010-01-01T02:40:03Z</time>
      </trkpt>
      <trkpt lat="43.85329130" lon="10.36189910">
        <ele>8.0000000</ele>
        <time>2010-01-01T02:40:28Z</time>
      </trkpt>
      <trkpt lat="43.85374770" lon="10.36216730">
        <ele>12.000000</ele>
        <time>2010-01-01T02:40:48Z</time>
      </trkpt>
      <trkpt lat="43.85408810" lon="10.36118030">
        <ele>12.000000</ele>
        <time>2010-01-01T02:41:19Z</time>
      </trkpt>
      <trkpt lat="43.85435120" lon="10.35975330">
        <ele>11.000000</ele>
        <time>2010-01-01T02:42:02Z</time>
      </trkpt>
      <trkpt lat="43.85462200" lon="10.35651320">
        <ele>8.0000000</ele>
        <time>2010-01-01T02:43:36Z</time>
      </trkpt>
      <trkpt lat="43.85521000" lon="10.35495750">
        <ele>4.0000000</ele>
        <time>2010-01-01T02:44:27Z</time>
      </trkpt>
      <trkpt lat="43.85939520" lon="10.34708260">
        <ele>6.0000000</ele>
        <time>2010-01-01T02:49:09Z</time>
      </trkpt>
      <trkpt lat="43.85979750" lon="10.34688940">
        <ele>6.0000000</ele>
        <time>2010-01-01T02:49:26Z</time>
      </trkpt>
      <trkpt lat="43.86048600" lon="10.34698600">
        <ele>7.0000000</ele>
        <time>2010-01-01T02:49:54Z</time>
      </trkpt>
      <trkpt lat="43.86122860" lon="10.34740440">
        <ele>6.0000000</ele>
        <time>2010-01-01T02:50:26Z</time>
      </trkpt>
      <trkpt lat="43.86180880" lon="10.34787650">
        <ele>8.0000000</ele>
        <time>2010-01-01T02:50:53Z</time>
      </trkpt>
      <trkpt lat="43.86350290" lon="10.34843440">
        <ele>5.0000000</ele>
        <time>2010-01-01T02:52:02Z</time>
      </trkpt>
      <trkpt lat="43.86455490" lon="10.34846660">
        <ele>4.0000000</ele>
        <time>2010-01-01T02:52:44Z</time>
      </trkpt>
      <trkpt lat="43.86510410" lon="10.34826270">
        <ele>6.0000000</ele>
        <time>2010-01-01T02:53:07Z</time>
      </trkpt>
      <trkpt lat="43.86546770" lon="10.34777990">
        <ele>5.0000000</ele>
        <time>2010-01-01T02:53:27Z</time>
      </trkpt>
      <trkpt lat="43.86571520" lon="10.34694310">
        <ele>4.0000000</ele>
        <time>2010-01-01T02:53:53Z</time>
      </trkpt>
      <trkpt lat="43.86580030" lon="10.34536600">
        <ele>14.000000</ele>
        <time>2010-01-01T02:54:39Z</time>
      </trkpt>
      <trkpt lat="43.86614830" lon="10.34422870">
        <ele>14.000000</ele>
        <time>2010-01-01T02:55:15Z</time>
      </trkpt>
      <trkpt lat="43.86644230" lon="10.34386390">
        <ele>10.000000</ele>
        <time>2010-01-01T02:55:31Z</time>
      </trkpt>
      <trkpt lat="43.86697600" lon="10.34371370">
        <ele>7.0000000</ele>
        <time>2010-01-01T02:55:52Z</time>
      </trkpt>
      <trkpt lat="43.86811300" lon="10.34257650">
        <ele>12.000000</ele>
        <time>2010-01-01T02:56:48Z</time>
      </trkpt>
      <trkpt lat="43.86884780" lon="10.34077400">
        <ele>7.0000000</ele>
        <time>2010-01-01T02:57:48Z</time>
      </trkpt>
      <trkpt lat="43.87076600" lon="10.33915400">
        <ele>9.0000000</ele>
        <time>2010-01-01T02:59:18Z</time>
      </trkpt>
      <trkpt lat="43.87180240" lon="10.33783430">
        <ele>11.000000</ele>
        <time>2010-01-01T03:00:14Z</time>
      </trkpt>
      <trkpt lat="43.87387520" lon="10.33577440">
        <ele>13.000000</ele>
        <time>2010-01-01T03:01:57Z</time>
      </trkpt>
      <trkpt lat="43.87422320" lon="10.33431520">
        <ele>10.000000</ele>
        <time>2010-01-01T03:02:41Z</time>
      </trkpt>
      <trkpt lat="43.87420000" lon="10.33325310">
        <ele>10.000000</ele>
        <time>2010-01-01T03:03:12Z</time>
      </trkpt>
      <trkpt lat="43.87393700" lon="10.33126830">
        <ele>8.0000000</ele>
        <time>2010-01-01T03:04:10Z</time>
      </trkpt>
      <trkpt lat="43.87397570" lon="10.33049580">
        <ele>7.0000000</ele>
        <time>2010-01-01T03:04:32Z</time>
      </trkpt>
      <trkpt lat="43.87413810" lon="10.32978770">
        <ele>7.0000000</ele>
        <time>2010-01-01T03:04:54Z</time>
      </trkpt>
      <trkpt lat="43.87450160" lon="10.32919760">
        <ele>6.0000000</ele>
        <time>2010-01-01T03:05:16Z</time>
      </trkpt>
      <trkpt lat="43.87481100" lon="10.32898300">
        <ele>6.0000000</ele>
        <time>2010-01-01T03:05:30Z</time>
      </trkpt>
      <trkpt lat="43.87597880" lon="10.32892940">
        <ele>7.0000000</ele>
        <time>2010-01-01T03:06:17Z</time>
      </trkpt>
      <trkpt lat="43.87682180" lon="10.32861820">
        <ele>5.0000000</ele>
        <time>2010-01-01T03:06:52Z</time>
      </trkpt>
      <trkpt lat="43.87740950" lon="10.32822660">
        <ele>4.0000000</ele>
        <time>2010-01-01T03:07:18Z</time>
      </trkpt>
      <trkpt lat="43.87788900" lon="10.32810860">
        <ele>4.0000000</ele>
        <time>2010-01-01T03:07:37Z</time>
      </trkpt>
      <trkpt lat="43.87783100" lon="10.32750240">
        <ele>5.0000000</ele>
        <time>2010-01-01T03:07:55Z</time>
      </trkpt>
      <trkpt lat="43.87829890" lon="10.32596820">
        <ele>8.0000000</ele>
        <time>2010-01-01T03:08:43Z</time>
      </trkpt>
      <trkpt lat="43.87793540" lon="10.32460570">
        <ele>7.0000000</ele>
        <time>2010-01-01T03:09:25Z</time>
      </trkpt>
      <trkpt lat="43.87809780" lon="10.32430520">
        <ele>6.0000000</ele>
        <time>2010-01-01T03:09:36Z</time>
      </trkpt>
      <trkpt lat="43.87858120" lon="10.32411210">
        <ele>10.000000</ele>
        <time>2010-01-01T03:09:56Z</time>
      </trkpt>
      <trkpt lat="43.87950530" lon="10.32339330">
        <ele>9.0000000</ele>
        <time>2010-01-01T03:10:38Z</time>
      </trkpt>
      <trkpt lat="43.88012400" lon="10.32338260">
        <ele>7.0000000</ele>
        <time>2010-01-01T03:11:03Z</time>
      </trkpt>
      <trkpt lat="43.88040240" lon="10.32288900">
        <ele>5.0000000</ele>
        <time>2010-01-01T03:11:21Z</time>
      </trkpt>
      <trkpt lat="43.88081220" lon="10.32122610">
        <ele>4.0000000</ele>
        <time>2010-01-01T03:12:12Z</time>
      </trkpt>
      <trkpt lat="43.88172470" lon="10.31790010">
        <ele>6.0000000</ele>
        <time>2010-01-01T03:13:54Z</time>
      </trkpt>
      <trkpt lat="43.88206500" lon="10.31726710">
        <ele>6.0000000</ele>
        <time>2010-01-01T03:14:17Z</time>
      </trkpt>
      <trkpt lat="43.88283050" lon="10.31648390">
        <ele>8.0000000</ele>
        <time>2010-01-01T03:14:55Z</time>
      </trkpt>
      <trkpt lat="43.88322110" lon="10.31319550">
        <ele>3.0000000</ele>
        <time>2010-01-01T03:16:31Z</time>
      </trkpt>
      <trkpt lat="43.88354970" lon="10.31222460">
        <ele>5.0000000</ele>
        <time>2010-01-01T03:17:02Z</time>
      </trkpt>
      <trkpt lat="43.88338730" lon="10.31081910">
        <ele>3.0000000</ele>
        <time>2010-01-01T03:17:43Z</time>
      </trkpt>
      <trkpt lat="43.88269910" lon="10.30957460">
        <ele>5.0000000</ele>
        <time>2010-01-01T03:18:29Z</time>
      </trkpt>
      <trkpt lat="43.88384360" lon="10.30675290">
        <ele>7.0000000</ele>
        <time>2010-01-01T03:20:02Z</time>
      </trkpt>
      <trkpt lat="43.88451630" lon="10.30431740">
        <ele>11.000000</ele>
        <time>2010-01-01T03:21:17Z</time>
      </trkpt>
      <trkpt lat="43.88445440" lon="10.30202150">
        <ele>9.0000000</ele>
        <time>2010-01-01T03:22:24Z</time>
      </trkpt>
      <trkpt lat="43.88399050" lon="10.30054090">
        <ele>8.0000000</ele>
        <time>2010-01-01T03:23:10Z</time>
      </trkpt>
      <trkpt lat="43.88341440" lon="10.29929100">
        <ele>3.0000000</ele>
        <time>2010-01-01T03:23:53Z</time>
      </trkpt>
      <trkpt lat="43.88341440" lon="10.29891550">
        <ele>2.0000000</ele>
        <time>2010-01-01T03:24:04Z</time>
      </trkpt>
      <trkpt lat="43.88361540" lon="10.29852920">
        <ele>2.0000000</ele>
        <time>2010-01-01T03:24:18Z</time>
      </trkpt>
      <trkpt lat="43.88356130" lon="10.29812150">
        <ele>1.0000000</ele>
        <time>2010-01-01T03:24:30Z</time>
      </trkpt>
      <trkpt lat="43.88337960" lon="10.29796600">
        <ele>0.0000000</ele>
        <time>2010-01-01T03:24:38Z</time>
      </trkpt>
      <trkpt lat="43.88233950" lon="10.29589530">
        <ele>0.0000000</ele>
        <time>2010-01-01T03:25:51Z</time>
      </trkpt>
      <trkpt lat="43.87988040" lon="10.29229580">
        <ele>0.0000000</ele>
        <time>2010-01-01T03:28:14Z</time>
      </trkpt>
      <trkpt lat="43.87933520" lon="10.29172180">
        <ele>1.0000000</ele>
        <time>2010-01-01T03:28:41Z</time>
      </trkpt>
      <trkpt lat="43.87871650" lon="10.29080980">
        <ele>-1.000000</ele>
        <time>2010-01-01T03:29:18Z</time>
      </trkpt>
      <trkpt lat="43.87856180" lon="10.29025190">
        <ele>1.0000000</ele>
        <time>2010-01-01T03:29:35Z</time>
      </trkpt>
      <trkpt lat="43.87802440" lon="10.28958140">
        <ele>0.0000000</ele>
        <time>2010-01-01T03:30:04Z</time>
      </trkpt>
      <trkpt lat="43.87688750" lon="10.28795590">
        <ele>1.0000000</ele>
        <time>2010-01-01T03:31:09Z</time>
      </trkpt>
      <trkpt lat="43.87654340" lon="10.28732290">
        <ele>3.0000000</ele>
        <time>2010-01-01T03:31:32Z</time>
      </trkpt>
      <trkpt lat="43.87620310" lon="10.28589600">
        <ele>0.0000000</ele>
        <time>2010-01-01T03:32:15Z</time>
      </trkpt>
      <trkpt lat="43.87536010" lon="10.28453350">
        <ele>2.0000000</ele>
        <time>2010-01-01T03:33:07Z</time>
      </trkpt>
      <trkpt lat="43.87396020" lon="10.28303140">
        <ele>1.0000000</ele>
        <time>2010-01-01T03:34:18Z</time>
      </trkpt>
      <trkpt lat="43.87359670" lon="10.28238770">
        <ele>1.0000000</ele>
        <time>2010-01-01T03:34:42Z</time>
      </trkpt>
      <trkpt lat="43.87244440" lon="10.27967330">
        <ele>1.0000000</ele>
        <time>2010-01-01T03:36:12Z</time>
      </trkpt>
      <trkpt lat="43.87246760" lon="10.27821420">
        <ele>-1.000000</ele>
        <time>2010-01-01T03:36:55Z</time>
      </trkpt>
      <trkpt lat="43.87222390" lon="10.27712520">
        <ele>2.0000000</ele>
        <time>2010-01-01T03:37:27Z</time>
      </trkpt>
      <trkpt lat="43.87209630" lon="10.27569290">
        <ele>3.0000000</ele>
        <time>2010-01-01T03:38:09Z</time>
      </trkpt>
      <trkpt lat="43.87149300" lon="10.27434110">
        <ele>0.0000000</ele>
        <time>2010-01-01T03:38:55Z</time>
      </trkpt>
      <trkpt lat="43.87120300" lon="10.27232400">
        <ele>0.0000000</ele>
        <time>2010-01-01T03:39:54Z</time>
      </trkpt>
      <trkpt lat="43.87086650" lon="10.27215240">
        <ele>0.0000000</ele>
        <time>2010-01-01T03:40:09Z</time>
      </trkpt>
      <trkpt lat="43.87083560" lon="10.27179830">
        <ele>1.0000000</ele>
        <time>2010-01-01T03:40:19Z</time>
      </trkpt>
      <trkpt lat="43.87094000" lon="10.27157300">
        <ele>1.0000000</ele>
        <time>2010-01-01T03:40:27Z</time>
      </trkpt>
      <trkpt lat="43.87119910" lon="10.27141210">
        <ele>1.0000000</ele>
        <time>2010-01-01T03:40:38Z</time>
      </trkpt>
      <trkpt lat="43.87034060" lon="10.26859040">
        <ele>1.0000000</ele>
        <time>2010-01-01T03:42:06Z</time>
      </trkpt>
      <trkpt lat="43.86993840" lon="10.26641240">
        <ele>2.0000000</ele>
        <time>2010-01-01T03:43:11Z</time>
      </trkpt>
      <trkpt lat="43.86873180" lon="10.26022190">
        <ele>4.0000000</ele>
        <time>2010-01-01T03:46:16Z</time>
      </trkpt>
      <trkpt lat="43.86868150" lon="10.25987860">
        <ele>3.0000000</ele>
        <time>2010-01-01T03:46:27Z</time>
      </trkpt>
      <trkpt lat="43.86872410" lon="10.25970690">
        <ele>2.0000000</ele>
        <time>2010-01-01T03:46:32Z</time>
      </trkpt>
      <trkpt lat="43.86863510" lon="10.25954600">
        <ele>1.0000000</ele>
        <time>2010-01-01T03:46:38Z</time>
      </trkpt>
      <trkpt lat="43.86849590" lon="10.25955670">
        <ele>1.0000000</ele>
        <time>2010-01-01T03:46:43Z</time>
      </trkpt>
      <trkpt lat="43.86837600" lon="10.25929920">
        <ele>1.0000000</ele>
        <time>2010-01-01T03:46:52Z</time>
      </trkpt>
      <trkpt lat="43.86664730" lon="10.25396700">
        <ele>6.0000000</ele>
        <time>2010-01-01T03:49:41Z</time>
      </trkpt>
      <trkpt lat="43.86668590" lon="10.25370950">
        <ele>5.0000000</ele>
        <time>2010-01-01T03:49:48Z</time>
      </trkpt>
      <trkpt lat="43.86677870" lon="10.25362370">
        <ele>5.0000000</ele>
        <time>2010-01-01T03:49:53Z</time>
      </trkpt>
      <trkpt lat="43.86681360" lon="10.25346270">
        <ele>5.0000000</ele>
        <time>2010-01-01T03:49:58Z</time>
      </trkpt>
      <trkpt lat="43.86605550" lon="10.25102730">
        <ele>5.0000000</ele>
        <time>2010-01-01T03:51:14Z</time>
      </trkpt>
      <trkpt lat="43.86573000" lon="10.25001000">
        <ele>3.0000000</ele>
        <time>2010-01-01T03:51:46Z</time>
      </trkpt>
      <trkpt lat="43.86577710" lon="10.24987390">
        <ele>3.0000000</ele>
        <time>2010-01-01T03:51:51Z</time>
      </trkpt>
      <trkpt lat="43.86565720" lon="10.24973980">
        <ele>3.0000000</ele>
        <time>2010-01-01T03:51:57Z</time>
      </trkpt>
      <trkpt lat="43.86543000" lon="10.24857000">
        <ele>4.0000000</ele>
        <time>2010-01-01T03:52:32Z</time>
      </trkpt>
      <trkpt lat="43.86539000" lon="10.24799000">
        <ele>4.0000000</ele>
        <time>2010-01-01T03:52:49Z</time>
      </trkpt>
      <trkpt lat="43.86545000" lon="10.24718000">
        <ele>4.0000000</ele>
        <time>2010-01-01T03:53:12Z</time>
      </trkpt>
      <trkpt lat="43.86558000" lon="10.24651000">
        <ele>2.0000000</ele>
        <time>2010-01-01T03:53:32Z</time>
      </trkpt>
      <trkpt lat="43.86571000" lon="10.24632000">
        <ele>3.0000000</ele>
        <time>2010-01-01T03:53:40Z</time>
      </trkpt>
      <trkpt lat="43.86612000" lon="10.24607000">
        <ele>6.0000000</ele>
        <time>2010-01-01T03:53:58Z</time>
      </trkpt>
      <trkpt lat="43.86570740" lon="10.24478310">
        <ele>5.0000000</ele>
        <time>2010-01-01T03:54:38Z</time>
      </trkpt>
      <trkpt lat="43.86571130" lon="10.24450420">
        <ele>4.0000000</ele>
        <time>2010-01-01T03:54:46Z</time>
      </trkpt>
      <trkpt lat="43.86581000" lon="10.24435000">
        <ele>4.0000000</ele>
        <time>2010-01-01T03:54:52Z</time>
      </trkpt>
      <trkpt lat="43.86755000" lon="10.24333000">
        <ele>6.0000000</ele>
        <time>2010-01-01T03:56:08Z</time>
      </trkpt>
      <trkpt lat="43.87014000" lon="10.24185000">
        <ele>2.0000000</ele>
        <time>2010-01-01T03:58:00Z</time>
      </trkpt>
      <trkpt lat="43.87193000" lon="10.24076000">
        <ele>6.0000000</ele>
        <time>2010-01-01T03:59:18Z</time>
      </trkpt>
      <trkpt lat="43.87731000" lon="10.23764000">
        <ele>5.0000000</ele>
        <time>2010-01-01T04:03:12Z</time>
      </trkpt>
      <trkpt lat="43.88105000" lon="10.23542000">
        <ele>4.0000000</ele>
        <time>2010-01-01T04:05:55Z</time>
      </trkpt>
      <trkpt lat="43.88341820" lon="10.23406500">
        <ele>3.0000000</ele>
        <time>2010-01-01T04:07:37Z</time>
      </trkpt>
      <trkpt lat="43.88585000" lon="10.23233000">
        <ele>3.0000000</ele>
        <time>2010-01-01T04:09:27Z</time>
      </trkpt>
      <trkpt lat="43.88773000" lon="10.23100000">
        <ele>4.0000000</ele>
        <time>2010-01-01T04:10:51Z</time>
      </trkpt>
      <trkpt lat="43.89140000" lon="10.22822000">
        <ele>4.0000000</ele>
        <time>2010-01-01T04:13:38Z</time>
      </trkpt>
      <trkpt lat="43.89708000" lon="10.22389000">
        <ele>6.0000000</ele>
        <time>2010-01-01T04:17:58Z</time>
      </trkpt>
      <trkpt lat="43.90099000" lon="10.22092000">
        <ele>2.0000000</ele>
        <time>2010-01-01T04:20:56Z</time>
      </trkpt>
      <trkpt lat="43.90120000" lon="10.22071000">
        <ele>2.0000000</ele>
        <time>2010-01-01T04:21:07Z</time>
      </trkpt>
      <trkpt lat="43.90176160" lon="10.21960250">
        <ele>4.0000000</ele>
        <time>2010-01-01T04:21:46Z</time>
      </trkpt>
      <trkpt lat="43.90207000" lon="10.21910000">
        <ele>2.0000000</ele>
        <time>2010-01-01T04:22:05Z</time>
      </trkpt>
      <trkpt lat="43.90635000" lon="10.21594000">
        <ele>3.0000000</ele>
        <time>2010-01-01T04:25:19Z</time>
      </trkpt>
      <trkpt lat="43.91145000" lon="10.21211000">
        <ele>3.0000000</ele>
        <time>2010-01-01T04:29:11Z</time>
      </trkpt>
      <trkpt lat="43.91214000" lon="10.21166000">
        <ele>4.0000000</ele>
        <time>2010-01-01T04:29:41Z</time>
      </trkpt>
      <trkpt lat="43.91557000" lon="10.20917000">
        <ele>1.0000000</ele>
        <time>2010-01-01T04:32:16Z</time>
      </trkpt>
      <trkpt lat="43.91676000" lon="10.20815000">
        <ele>4.0000000</ele>
        <time>2010-01-01T04:33:12Z</time>
      </trkpt>
      <trkpt lat="43.92037000" lon="10.20497000">
        <ele>6.0000000</ele>
        <time>2010-01-01T04:36:04Z</time>
      </trkpt>
      <trkpt lat="43.92367000" lon="10.20210000">
        <ele>2.0000000</ele>
        <time>2010-01-01T04:38:39Z</time>
      </trkpt>
      <trkpt lat="43.92444000" lon="10.20150000">
        <ele>4.0000000</ele>
        <time>2010-01-01T04:39:15Z</time>
      </trkpt>
      <trkpt lat="43.92655000" lon="10.19964000">
        <ele>1.0000000</ele>
        <time>2010-01-01T04:40:55Z</time>
      </trkpt>
      <trkpt lat="43.92800450" lon="10.19818780">
        <ele>4.0000000</ele>
        <time>2010-01-01T04:42:07Z</time>
      </trkpt>
      <trkpt lat="43.93557000" lon="10.19132000">
        <ele>3.0000000</ele>
        <time>2010-01-01T04:48:08Z</time>
      </trkpt>
      <trkpt lat="43.93683580" lon="10.19015190">
        <ele>2.0000000</ele>
        <time>2010-01-01T04:49:09Z</time>
      </trkpt>
      <trkpt lat="43.94116220" lon="10.19823070">
        <ele>10.000000</ele>
        <time>2010-01-01T04:53:59Z</time>
      </trkpt>
      <trkpt lat="43.94583580" lon="10.20682450">
        <ele>1.0000000</ele>
        <time>2010-01-01T04:59:10Z</time>
      </trkpt>
      <trkpt lat="43.94583580" lon="10.20725360">
        <ele>2.0000000</ele>
        <time>2010-01-01T04:59:22Z</time>
      </trkpt>
      <trkpt lat="43.94610620" lon="10.20737170">
        <ele>2.0000000</ele>
        <time>2010-01-01T04:59:34Z</time>
      </trkpt>
      <trkpt lat="43.95658770" lon="10.22659770">
        <ele>10.000000</ele>
        <time>2010-01-01T05:11:09Z</time>
      </trkpt>
      <trkpt lat="43.95841810" lon="10.22416230">
        <ele>8.0000000</ele>
        <time>2010-01-01T05:12:50Z</time>
      </trkpt>
      <trkpt lat="43.96050330" lon="10.22473090">
        <ele>9.0000000</ele>
        <time>2010-01-01T05:14:15Z</time>
      </trkpt>
      <trkpt lat="43.96072720" lon="10.22528880">
        <ele>12.000000</ele>
        <time>2010-01-01T05:14:33Z</time>
      </trkpt>
      <trkpt lat="43.96010000" lon="10.22763000">
        <ele>16.000000</ele>
        <time>2010-01-01T05:15:45Z</time>
      </trkpt>
      <trkpt lat="43.95967690" lon="10.22835730">
        <ele>17.000000</ele>
        <time>2010-01-01T05:16:12Z</time>
      </trkpt>
      <trkpt lat="43.95941000" lon="10.22837000">
        <ele>16.000000</ele>
        <time>2010-01-01T05:16:23Z</time>
      </trkpt>
      <trkpt lat="43.95897000" lon="10.22818000">
        <ele>14.000000</ele>
        <time>2010-01-01T05:16:42Z</time>
      </trkpt>
      <trkpt lat="43.95872000" lon="10.22818000">
        <ele>13.000000</ele>
        <time>2010-01-01T05:16:52Z</time>
      </trkpt>
      <trkpt lat="43.95852000" lon="10.22833000">
        <ele>12.000000</ele>
        <time>2010-01-01T05:17:01Z</time>
      </trkpt>
      <trkpt lat="43.95802000" lon="10.22898000">
        <ele>13.000000</ele>
        <time>2010-01-01T05:17:28Z</time>
      </trkpt>
      <trkpt lat="43.95676000" lon="10.23054000">
        <ele>17.000000</ele>
        <time>2010-01-01T05:18:36Z</time>
      </trkpt>
      <trkpt lat="43.95649500" lon="10.23080340">
        <ele>17.000000</ele>
        <time>2010-01-01T05:18:49Z</time>
      </trkpt>
      <trkpt lat="43.95588000" lon="10.23142000">
        <ele>17.000000</ele>
        <time>2010-01-01T05:19:19Z</time>
      </trkpt>
      <trkpt lat="43.95459000" lon="10.23295000">
        <ele>17.000000</ele>
        <time>2010-01-01T05:20:27Z</time>
      </trkpt>
      <trkpt lat="43.95455640" lon="10.23331400">
        <ele>18.000000</ele>
        <time>2010-01-01T05:20:37Z</time>
      </trkpt>
      <trkpt lat="43.95499000" lon="10.23424000">
        <ele>22.000000</ele>
        <time>2010-01-01T05:21:09Z</time>
      </trkpt>
      <trkpt lat="43.95389000" lon="10.23584000">
        <ele>19.000000</ele>
        <time>2010-01-01T05:22:13Z</time>
      </trkpt>
      <trkpt lat="43.95093000" lon="10.23909000">
        <ele>21.000000</ele>
        <time>2010-01-01T05:24:44Z</time>
      </trkpt>
      <trkpt lat="43.95042000" lon="10.23953000">
        <ele>18.000000</ele>
        <time>2010-01-01T05:25:08Z</time>
      </trkpt>
      <trkpt lat="43.94807000" lon="10.24097000">
        <ele>17.000000</ele>
        <time>2010-01-01T05:26:51Z</time>
      </trkpt>
      <trkpt lat="43.94422000" lon="10.24326000">
        <ele>12.000000</ele>
        <time>2010-01-01T05:29:39Z</time>
      </trkpt>
      <trkpt lat="43.94357000" lon="10.24383000">
        <ele>12.000000</ele>
        <time>2010-01-01T05:30:09Z</time>
      </trkpt>
      <trkpt lat="43.94152000" lon="10.24592000">
        <ele>7.0000000</ele>
        <time>2010-01-01T05:31:51Z</time>
      </trkpt>
      <trkpt lat="43.93915000" lon="10.24837000">
        <ele>6.0000000</ele>
        <time>2010-01-01T05:33:49Z</time>
      </trkpt>
      <trkpt lat="43.93716810" lon="10.25193920">
        <ele>4.0000000</ele>
        <time>2010-01-01T05:35:59Z</time>
      </trkpt>
      <trkpt lat="43.93688990" lon="10.25199830">
        <ele>5.0000000</ele>
        <time>2010-01-01T05:36:11Z</time>
      </trkpt>
      <trkpt lat="43.93682810" lon="10.25225040">
        <ele>6.0000000</ele>
        <time>2010-01-01T05:36:18Z</time>
      </trkpt>
      <trkpt lat="43.93574000" lon="10.25341000">
        <ele>3.0000000</ele>
        <time>2010-01-01T05:37:13Z</time>
      </trkpt>
      <trkpt lat="43.93495000" lon="10.25484000">
        <ele>5.0000000</ele>
        <time>2010-01-01T05:38:05Z</time>
      </trkpt>
      <trkpt lat="43.93348000" lon="10.25685000">
        <ele>5.0000000</ele>
        <time>2010-01-01T05:39:28Z</time>
      </trkpt>
      <trkpt lat="43.93162000" lon="10.25928000">
        <ele>7.0000000</ele>
        <time>2010-01-01T05:41:10Z</time>
      </trkpt>
      <trkpt lat="43.93186000" lon="10.25972000">
        <ele>7.0000000</ele>
        <time>2010-01-01T05:41:26Z</time>
      </trkpt>
      <trkpt lat="43.93217000" lon="10.25998000">
        <ele>7.0000000</ele>
        <time>2010-01-01T05:41:40Z</time>
      </trkpt>
      <trkpt lat="43.93262000" lon="10.26075000">
        <ele>8.0000000</ele>
        <time>2010-01-01T05:42:09Z</time>
      </trkpt>
      <trkpt lat="43.93287000" lon="10.26131000">
        <ele>6.0000000</ele>
        <time>2010-01-01T05:42:28Z</time>
      </trkpt>
      <trkpt lat="43.93346000" lon="10.26217000">
        <ele>7.0000000</ele>
        <time>2010-01-01T05:43:02Z</time>
      </trkpt>
      <trkpt lat="43.93364000" lon="10.26253000">
        <ele>10.000000</ele>
        <time>2010-01-01T05:43:15Z</time>
      </trkpt>
      <trkpt lat="43.93379000" lon="10.26301000">
        <ele>12.000000</ele>
        <time>2010-01-01T05:43:30Z</time>
      </trkpt>
      <trkpt lat="43.93330000" lon="10.26360000">
        <ele>10.000000</ele>
        <time>2010-01-01T05:43:56Z</time>
      </trkpt>
      <trkpt lat="43.93310000" lon="10.26390000">
        <ele>10.000000</ele>
        <time>2010-01-01T05:44:08Z</time>
      </trkpt>
      <trkpt lat="43.93261000" lon="10.26444000">
        <ele>13.000000</ele>
        <time>2010-01-01T05:44:33Z</time>
      </trkpt>
      <trkpt lat="43.93222000" lon="10.26521000">
        <ele>21.000000</ele>
        <time>2010-01-01T05:45:00Z</time>
      </trkpt>
      <trkpt lat="43.93214000" lon="10.26607000">
        <ele>36.000000</ele>
        <time>2010-01-01T05:45:25Z</time>
      </trkpt>
      <trkpt lat="43.93225000" lon="10.26640000">
        <ele>39.000000</ele>
        <time>2010-01-01T05:45:35Z</time>
      </trkpt>
      <trkpt lat="43.93226000" lon="10.26670000">
        <ele>38.000000</ele>
        <time>2010-01-01T05:45:44Z</time>
      </trkpt>
      <trkpt lat="43.93220000" lon="10.26702000">
        <ele>34.000000</ele>
        <time>2010-01-01T05:45:54Z</time>
      </trkpt>
      <trkpt lat="43.93179000" lon="10.26785000">
        <ele>22.000000</ele>
        <time>2010-01-01T05:46:23Z</time>
      </trkpt>
      <trkpt lat="43.93134000" lon="10.26846000">
        <ele>22.000000</ele>
        <time>2010-01-01T05:46:48Z</time>
      </trkpt>
      <trkpt lat="43.93116000" lon="10.26858000">
        <ele>19.000000</ele>
        <time>2010-01-01T05:46:56Z</time>
      </trkpt>
      <trkpt lat="43.93117000" lon="10.26870000">
        <ele>18.000000</ele>
        <time>2010-01-01T05:46:59Z</time>
      </trkpt>
      <trkpt lat="43.93102000" lon="10.26904000">
        <ele>13.000000</ele>
        <time>2010-01-01T05:47:11Z</time>
      </trkpt>
      <trkpt lat="43.93057000" lon="10.26953000">
        <ele>14.000000</ele>
        <time>2010-01-01T05:47:34Z</time>
      </trkpt>
      <trkpt lat="43.93042000" lon="10.26975000">
        <ele>13.000000</ele>
        <time>2010-01-01T05:47:42Z</time>
      </trkpt>
      <trkpt lat="43.93018000" lon="10.27031000">
        <ele>12.000000</ele>
        <time>2010-01-01T05:48:01Z</time>
      </trkpt>
      <trkpt lat="43.93005000" lon="10.27113000">
        <ele>13.000000</ele>
        <time>2010-01-01T05:48:25Z</time>
      </trkpt>
      <trkpt lat="43.93000000" lon="10.27126000">
        <ele>13.000000</ele>
        <time>2010-01-01T05:48:30Z</time>
      </trkpt>
      <trkpt lat="43.93006000" lon="10.27268000">
        <ele>12.000000</ele>
        <time>2010-01-01T05:49:11Z</time>
      </trkpt>
      <trkpt lat="43.93028000" lon="10.27412000">
        <ele>17.000000</ele>
        <time>2010-01-01T05:49:53Z</time>
      </trkpt>
      <trkpt lat="43.93026000" lon="10.27435000">
        <ele>17.000000</ele>
        <time>2010-01-01T05:50:00Z</time>
      </trkpt>
      <trkpt lat="43.93010000" lon="10.27441000">
        <ele>16.000000</ele>
        <time>2010-01-01T05:50:06Z</time>
      </trkpt>
      <trkpt lat="43.93003670" lon="10.27473800">
        <ele>16.000000</ele>
        <time>2010-01-01T05:50:16Z</time>
      </trkpt>
      <trkpt lat="43.93023370" lon="10.27486140">
        <ele>16.000000</ele>
        <time>2010-01-01T05:50:25Z</time>
      </trkpt>
      <trkpt lat="43.93048000" lon="10.27509000">
        <ele>16.000000</ele>
        <time>2010-01-01T05:50:37Z</time>
      </trkpt>
      <trkpt lat="43.93079000" lon="10.27577000">
        <ele>17.000000</ele>
        <time>2010-01-01T05:51:00Z</time>
      </trkpt>
      <trkpt lat="43.93137000" lon="10.27727000">
        <ele>18.000000</ele>
        <time>2010-01-01T05:51:49Z</time>
      </trkpt>
      <trkpt lat="43.93206000" lon="10.27865000">
        <ele>19.000000</ele>
        <time>2010-01-01T05:52:37Z</time>
      </trkpt>
      <trkpt lat="43.93256000" lon="10.27945000">
        <ele>17.000000</ele>
        <time>2010-01-01T05:53:08Z</time>
      </trkpt>
      <trkpt lat="43.93393000" lon="10.28107000">
        <ele>21.000000</ele>
        <time>2010-01-01T05:54:20Z</time>
      </trkpt>
      <trkpt lat="43.93454000" lon="10.28176000">
        <ele>20.000000</ele>
        <time>2010-01-01T05:54:51Z</time>
      </trkpt>
      <trkpt lat="43.93500000" lon="10.28253000">
        <ele>21.000000</ele>
        <time>2010-01-01T05:55:20Z</time>
      </trkpt>
      <trkpt lat="43.93537000" lon="10.28357000">
        <ele>22.000000</ele>
        <time>2010-01-01T05:55:54Z</time>
      </trkpt>
      <trkpt lat="43.93564000" lon="10.28419000">
        <ele>23.000000</ele>
        <time>2010-01-01T05:56:15Z</time>
      </trkpt>
      <trkpt lat="43.93577000" lon="10.28477000">
        <ele>23.000000</ele>
        <time>2010-01-01T05:56:32Z</time>
      </trkpt>
      <trkpt lat="43.93579670" lon="10.28525230">
        <ele>23.000000</ele>
        <time>2010-01-01T05:56:46Z</time>
      </trkpt>
      <trkpt lat="43.93592030" lon="10.28541320">
        <ele>22.000000</ele>
        <time>2010-01-01T05:56:53Z</time>
      </trkpt>
      <trkpt lat="43.93607870" lon="10.28541860">
        <ele>23.000000</ele>
        <time>2010-01-01T05:56:59Z</time>
      </trkpt>
      <trkpt lat="43.93636070" lon="10.28556880">
        <ele>23.000000</ele>
        <time>2010-01-01T05:57:11Z</time>
      </trkpt>
      <trkpt lat="43.93705990" lon="10.28614280">
        <ele>27.000000</ele>
        <time>2010-01-01T05:57:44Z</time>
      </trkpt>
      <trkpt lat="43.93791360" lon="10.28806320">
        <ele>29.000000</ele>
        <time>2010-01-01T05:58:49Z</time>
      </trkpt>
      <trkpt lat="43.93809520" lon="10.28869090">
        <ele>29.000000</ele>
        <time>2010-01-01T05:59:08Z</time>
      </trkpt>
      <trkpt lat="43.93850850" lon="10.29063820">
        <ele>26.000000</ele>
        <time>2010-01-01T06:00:07Z</time>
      </trkpt>
      <trkpt lat="43.93868230" lon="10.29190950">
        <ele>24.000000</ele>
        <time>2010-01-01T06:00:44Z</time>
      </trkpt>
      <trkpt lat="43.93866300" lon="10.29232800">
        <ele>25.000000</ele>
        <time>2010-01-01T06:00:56Z</time>
      </trkpt>
      <trkpt lat="43.93901060" lon="10.29420010">
        <ele>29.000000</ele>
        <time>2010-01-01T06:01:52Z</time>
      </trkpt>
      <trkpt lat="43.93899910" lon="10.29531590">
        <ele>31.000000</ele>
        <time>2010-01-01T06:02:24Z</time>
      </trkpt>
      <trkpt lat="43.93877890" lon="10.29658190">
        <ele>28.000000</ele>
        <time>2010-01-01T06:03:02Z</time>
      </trkpt>
      <trkpt lat="43.93900680" lon="10.29776210">
        <ele>31.000000</ele>
        <time>2010-01-01T06:03:37Z</time>
      </trkpt>
      <trkpt lat="43.93904150" lon="10.29814830">
        <ele>30.000000</ele>
        <time>2010-01-01T06:03:48Z</time>
      </trkpt>
      <trkpt lat="43.93892950" lon="10.30026190">
        <ele>31.000000</ele>
        <time>2010-01-01T06:04:49Z</time>
      </trkpt>
      <trkpt lat="43.93883680" lon="10.30053010">
        <ele>31.000000</ele>
        <time>2010-01-01T06:04:58Z</time>
      </trkpt>
      <trkpt lat="43.93784410" lon="10.30187660">
        <ele>34.000000</ele>
        <time>2010-01-01T06:05:53Z</time>
      </trkpt>
      <trkpt lat="43.93750030" lon="10.30305140">
        <ele>34.000000</ele>
        <time>2010-01-01T06:06:30Z</time>
      </trkpt>
      <trkpt lat="43.93588940" lon="10.30666700">
        <ele>35.000000</ele>
        <time>2010-01-01T06:08:32Z</time>
      </trkpt>
      <trkpt lat="43.93627190" lon="10.30714980">
        <ele>36.000000</ele>
        <time>2010-01-01T06:08:53Z</time>
      </trkpt>
      <trkpt lat="43.93608260" lon="10.30792770">
        <ele>36.000000</ele>
        <time>2010-01-01T06:09:17Z</time>
      </trkpt>
      <trkpt lat="43.93407760" lon="10.31096930">
        <ele>38.000000</ele>
        <time>2010-01-01T06:11:16Z</time>
      </trkpt>
      <trkpt lat="43.93207260" lon="10.31237480">
        <ele>41.000000</ele>
        <time>2010-01-01T06:12:46Z</time>
      </trkpt>
      <trkpt lat="43.93126910" lon="10.31308290">
        <ele>43.000000</ele>
        <time>2010-01-01T06:13:24Z</time>
      </trkpt>
      <trkpt lat="43.92912880" lon="10.31426840">
        <ele>45.000000</ele>
        <time>2010-01-01T06:14:56Z</time>
      </trkpt>
      <trkpt lat="43.92856470" lon="10.31476190">
        <ele>47.000000</ele>
        <time>2010-01-01T06:15:23Z</time>
      </trkpt>
      <trkpt lat="43.92827880" lon="10.31506240">
        <ele>47.000000</ele>
        <time>2010-01-01T06:15:37Z</time>
      </trkpt>
      <trkpt lat="43.92812430" lon="10.31511600">
        <ele>47.000000</ele>
        <time>2010-01-01T06:15:43Z</time>
      </trkpt>
      <trkpt lat="43.92737000" lon="10.31807000">
        <ele>50.000000</ele>
        <time>2010-01-01T06:17:14Z</time>
      </trkpt>
      <trkpt lat="43.92696910" lon="10.31963820">
        <ele>53.000000</ele>
        <time>2010-01-01T06:18:02Z</time>
      </trkpt>
      <trkpt lat="43.92635000" lon="10.32093000">
        <ele>56.000000</ele>
        <time>2010-01-01T06:18:46Z</time>
      </trkpt>
      <trkpt lat="43.92607000" lon="10.32131000">
        <ele>55.000000</ele>
        <time>2010-01-01T06:19:02Z</time>
      </trkpt>
      <trkpt lat="43.92563000" lon="10.32254000">
        <ele>57.000000</ele>
        <time>2010-01-01T06:19:42Z</time>
      </trkpt>
      <trkpt lat="43.92456590" lon="10.32491680">
        <ele>61.000000</ele>
        <time>2010-01-01T06:21:02Z</time>
      </trkpt>
      <trkpt lat="43.92281000" lon="10.32756000">
        <ele>66.000000</ele>
        <time>2010-01-01T06:22:46Z</time>
      </trkpt>
      <trkpt lat="43.92211000" lon="10.32854000">
        <ele>73.000000</ele>
        <time>2010-01-01T06:23:26Z</time>
      </trkpt>
      <trkpt lat="43.92179000" lon="10.32921000">
        <ele>74.000000</ele>
        <time>2010-01-01T06:23:49Z</time>
      </trkpt>
      <trkpt lat="43.92103000" lon="10.33215000">
        <ele>82.000000</ele>
        <time>2010-01-01T06:25:19Z</time>
      </trkpt>
      <trkpt lat="43.92072000" lon="10.33345000">
        <ele>85.000000</ele>
        <time>2010-01-01T06:25:59Z</time>
      </trkpt>
      <trkpt lat="43.92048000" lon="10.33372000">
        <ele>83.000000</ele>
        <time>2010-01-01T06:26:11Z</time>
      </trkpt>
      <trkpt lat="43.91842000" lon="10.33429000">
        <ele>94.000000</ele>
        <time>2010-01-01T06:27:35Z</time>
      </trkpt>
      <trkpt lat="43.91821000" lon="10.33442000">
        <ele>93.000000</ele>
        <time>2010-01-01T06:27:44Z</time>
      </trkpt>
      <trkpt lat="43.91797000" lon="10.33470000">
        <ele>95.000000</ele>
        <time>2010-01-01T06:27:57Z</time>
      </trkpt>
      <trkpt lat="43.91787000" lon="10.33490000">
        <ele>98.000000</ele>
        <time>2010-01-01T06:28:04Z</time>
      </trkpt>
      <trkpt lat="43.91751000" lon="10.33544000">
        <ele>102.00000</ele>
        <time>2010-01-01T06:28:25Z</time>
      </trkpt>
      <trkpt lat="43.91735000" lon="10.33565000">
        <ele>102.00000</ele>
        <time>2010-01-01T06:28:34Z</time>
      </trkpt>
      <trkpt lat="43.91709000" lon="10.33593000">
        <ele>100.00000</ele>
        <time>2010-01-01T06:28:47Z</time>
      </trkpt>
      <trkpt lat="43.91703000" lon="10.33617000">
        <ele>100.00000</ele>
        <time>2010-01-01T06:28:54Z</time>
      </trkpt>
      <trkpt lat="43.91697000" lon="10.33701000">
        <ele>113.00000</ele>
        <time>2010-01-01T06:29:19Z</time>
      </trkpt>
      <trkpt lat="43.91692000" lon="10.33716000">
        <ele>115.00000</ele>
        <time>2010-01-01T06:29:23Z</time>
      </trkpt>
      <trkpt lat="43.91676000" lon="10.33719000">
        <ele>115.00000</ele>
        <time>2010-01-01T06:29:30Z</time>
      </trkpt>
      <trkpt lat="43.91593000" lon="10.33670000">
        <ele>109.00000</ele>
        <time>2010-01-01T06:30:06Z</time>
      </trkpt>
      <trkpt lat="43.91577000" lon="10.33668000">
        <ele>108.00000</ele>
        <time>2010-01-01T06:30:12Z</time>
      </trkpt>
      <trkpt lat="43.91557000" lon="10.33682000">
        <ele>107.00000</ele>
        <time>2010-01-01T06:30:21Z</time>
      </trkpt>
      <trkpt lat="43.91544000" lon="10.33700000">
        <ele>110.00000</ele>
        <time>2010-01-01T06:30:29Z</time>
      </trkpt>
      <trkpt lat="43.91523000" lon="10.33747000">
        <ele>117.00000</ele>
        <time>2010-01-01T06:30:45Z</time>
      </trkpt>
      <trkpt lat="43.91512000" lon="10.33756000">
        <ele>119.00000</ele>
        <time>2010-01-01T06:30:50Z</time>
      </trkpt>
      <trkpt lat="43.91500000" lon="10.33750000">
        <ele>119.00000</ele>
        <time>2010-01-01T06:30:55Z</time>
      </trkpt>
      <trkpt lat="43.91479000" lon="10.33720000">
        <ele>121.00000</ele>
        <time>2010-01-01T06:31:07Z</time>
      </trkpt>
      <trkpt lat="43.91463000" lon="10.33711000">
        <ele>121.00000</ele>
        <time>2010-01-01T06:31:14Z</time>
      </trkpt>
      <trkpt lat="43.91426000" lon="10.33707000">
        <ele>123.00000</ele>
        <time>2010-01-01T06:31:29Z</time>
      </trkpt>
      <trkpt lat="43.91364000" lon="10.33718000">
        <ele>136.00000</ele>
        <time>2010-01-01T06:31:54Z</time>
      </trkpt>
      <trkpt lat="43.91356860" lon="10.33713160">
        <ele>137.00000</ele>
        <time>2010-01-01T06:31:57Z</time>
      </trkpt>
      <trkpt lat="43.91353390" lon="10.33699750">
        <ele>135.00000</ele>
        <time>2010-01-01T06:32:01Z</time>
      </trkpt>
      <trkpt lat="43.91350680" lon="10.33643420">
        <ele>129.00000</ele>
        <time>2010-01-01T06:32:17Z</time>
      </trkpt>
      <trkpt lat="43.91336000" lon="10.33623000">
        <ele>131.00000</ele>
        <time>2010-01-01T06:32:26Z</time>
      </trkpt>
      <trkpt lat="43.91299000" lon="10.33567000">
        <ele>128.00000</ele>
        <time>2010-01-01T06:32:48Z</time>
      </trkpt>
      <trkpt lat="43.91285000" lon="10.33556000">
        <ele>126.00000</ele>
        <time>2010-01-01T06:32:54Z</time>
      </trkpt>
      <trkpt lat="43.91272000" lon="10.33560000">
        <ele>127.00000</ele>
        <time>2010-01-01T06:32:59Z</time>
      </trkpt>
      <trkpt lat="43.91267000" lon="10.33580000">
        <ele>130.00000</ele>
        <time>2010-01-01T06:33:05Z</time>
      </trkpt>
      <trkpt lat="43.91274000" lon="10.33602000">
        <ele>135.00000</ele>
        <time>2010-01-01T06:33:12Z</time>
      </trkpt>
      <trkpt lat="43.91311650" lon="10.33628940">
        <ele>138.00000</ele>
        <time>2010-01-01T06:33:29Z</time>
      </trkpt>
      <trkpt lat="43.91324000" lon="10.33662000">
        <ele>139.00000</ele>
        <time>2010-01-01T06:33:40Z</time>
      </trkpt>
      <trkpt lat="43.91323000" lon="10.33687000">
        <ele>141.00000</ele>
        <time>2010-01-01T06:33:47Z</time>
      </trkpt>
      <trkpt lat="43.91313000" lon="10.33731000">
        <ele>147.00000</ele>
        <time>2010-01-01T06:34:01Z</time>
      </trkpt>
      <trkpt lat="43.91316000" lon="10.33746000">
        <ele>147.00000</ele>
        <time>2010-01-01T06:34:05Z</time>
      </trkpt>
      <trkpt lat="43.91332130" lon="10.33760360">
        <ele>147.00000</ele>
        <time>2010-01-01T06:34:13Z</time>
      </trkpt>
      <trkpt lat="43.91363000" lon="10.33769000">
        <ele>148.00000</ele>
        <time>2010-01-01T06:34:25Z</time>
      </trkpt>
      <trkpt lat="43.91373000" lon="10.33774000">
        <ele>148.00000</ele>
        <time>2010-01-01T06:34:30Z</time>
      </trkpt>
      <trkpt lat="43.91396000" lon="10.33792000">
        <ele>148.00000</ele>
        <time>2010-01-01T06:34:40Z</time>
      </trkpt>
      <trkpt lat="43.91410000" lon="10.33801000">
        <ele>148.00000</ele>
        <time>2010-01-01T06:34:46Z</time>
      </trkpt>
      <trkpt lat="43.91450000" lon="10.33810000">
        <ele>145.00000</ele>
        <time>2010-01-01T06:35:03Z</time>
      </trkpt>
      <trkpt lat="43.91465000" lon="10.33829000">
        <ele>148.00000</ele>
        <time>2010-01-01T06:35:11Z</time>
      </trkpt>
      <trkpt lat="43.91494000" lon="10.33904000">
        <ele>158.00000</ele>
        <time>2010-01-01T06:35:35Z</time>
      </trkpt>
      <trkpt lat="43.91502940" lon="10.33914320">
        <ele>160.00000</ele>
        <time>2010-01-01T06:35:40Z</time>
      </trkpt>
      <trkpt lat="43.91523000" lon="10.33909000">
        <ele>159.00000</ele>
        <time>2010-01-01T06:35:48Z</time>
      </trkpt>
      <trkpt lat="43.91536000" lon="10.33901000">
        <ele>157.00000</ele>
        <time>2010-01-01T06:35:54Z</time>
      </trkpt>
      <trkpt lat="43.91564000" lon="10.33895000">
        <ele>156.00000</ele>
        <time>2010-01-01T06:36:05Z</time>
      </trkpt>
      <trkpt lat="43.91588000" lon="10.33900000">
        <ele>158.00000</ele>
        <time>2010-01-01T06:36:15Z</time>
      </trkpt>
      <trkpt lat="43.91624000" lon="10.33926000">
        <ele>163.00000</ele>
        <time>2010-01-01T06:36:31Z</time>
      </trkpt>
      <trkpt lat="43.91646000" lon="10.33924000">
        <ele>160.00000</ele>
        <time>2010-01-01T06:36:40Z</time>
      </trkpt>
      <trkpt lat="43.91757000" lon="10.33889000">
        <ele>152.00000</ele>
        <time>2010-01-01T06:37:25Z</time>
      </trkpt>
      <trkpt lat="43.91766000" lon="10.33890000">
        <ele>152.00000</ele>
        <time>2010-01-01T06:37:29Z</time>
      </trkpt>
      <trkpt lat="43.91775000" lon="10.33907000">
        <ele>156.00000</ele>
        <time>2010-01-01T06:37:35Z</time>
      </trkpt>
      <trkpt lat="43.91771000" lon="10.33924000">
        <ele>159.00000</ele>
        <time>2010-01-01T06:37:40Z</time>
      </trkpt>
      <trkpt lat="43.91761000" lon="10.33931000">
        <ele>161.00000</ele>
        <time>2010-01-01T06:37:45Z</time>
      </trkpt>
      <trkpt lat="43.91742000" lon="10.33924000">
        <ele>160.00000</ele>
        <time>2010-01-01T06:37:53Z</time>
      </trkpt>
      <trkpt lat="43.91728000" lon="10.33925000">
        <ele>160.00000</ele>
        <time>2010-01-01T06:37:58Z</time>
      </trkpt>
      <trkpt lat="43.91703000" lon="10.33934000">
        <ele>162.00000</ele>
        <time>2010-01-01T06:38:09Z</time>
      </trkpt>
      <trkpt lat="43.91691000" lon="10.33945000">
        <ele>165.00000</ele>
        <time>2010-01-01T06:38:14Z</time>
      </trkpt>
      <trkpt lat="43.91663000" lon="10.33977000">
        <ele>171.00000</ele>
        <time>2010-01-01T06:38:29Z</time>
      </trkpt>
      <trkpt lat="43.91627000" lon="10.34010000">
        <ele>176.00000</ele>
        <time>2010-01-01T06:38:46Z</time>
      </trkpt>
      <trkpt lat="43.91610000" lon="10.34016000">
        <ele>178.00000</ele>
        <time>2010-01-01T06:38:53Z</time>
      </trkpt>
      <trkpt lat="43.91596000" lon="10.34014000">
        <ele>179.00000</ele>
        <time>2010-01-01T06:38:59Z</time>
      </trkpt>
      <trkpt lat="43.91579000" lon="10.34005000">
        <ele>182.00000</ele>
        <time>2010-01-01T06:39:06Z</time>
      </trkpt>
      <trkpt lat="43.91563000" lon="10.34002000">
        <ele>182.00000</ele>
        <time>2010-01-01T06:39:13Z</time>
      </trkpt>
      <trkpt lat="43.91554000" lon="10.34005000">
        <ele>182.00000</ele>
        <time>2010-01-01T06:39:16Z</time>
      </trkpt>
      <trkpt lat="43.91541000" lon="10.34015000">
        <ele>180.00000</ele>
        <time>2010-01-01T06:39:22Z</time>
      </trkpt>
      <trkpt lat="43.91532000" lon="10.34019000">
        <ele>180.00000</ele>
        <time>2010-01-01T06:39:26Z</time>
      </trkpt>
      <trkpt lat="43.91508000" lon="10.34025000">
        <ele>181.00000</ele>
        <time>2010-01-01T06:39:36Z</time>
      </trkpt>
      <trkpt lat="43.91462000" lon="10.34025000">
        <ele>180.00000</ele>
        <time>2010-01-01T06:39:54Z</time>
      </trkpt>
      <trkpt lat="43.91452000" lon="10.34024000">
        <ele>180.00000</ele>
        <time>2010-01-01T06:39:58Z</time>
      </trkpt>
      <trkpt lat="43.91421000" lon="10.34012000">
        <ele>187.00000</ele>
        <time>2010-01-01T06:40:11Z</time>
      </trkpt>
      <trkpt lat="43.91408000" lon="10.34012000">
        <ele>190.00000</ele>
        <time>2010-01-01T06:40:16Z</time>
      </trkpt>
      <trkpt lat="43.91394000" lon="10.34019000">
        <ele>192.00000</ele>
        <time>2010-01-01T06:40:22Z</time>
      </trkpt>
      <trkpt lat="43.91382000" lon="10.34036000">
        <ele>195.00000</ele>
        <time>2010-01-01T06:40:29Z</time>
      </trkpt>
      <trkpt lat="43.91375000" lon="10.34055000">
        <ele>196.00000</ele>
        <time>2010-01-01T06:40:35Z</time>
      </trkpt>
      <trkpt lat="43.91372000" lon="10.34078000">
        <ele>194.00000</ele>
        <time>2010-01-01T06:40:42Z</time>
      </trkpt>
      <trkpt lat="43.91372710" lon="10.34123530">
        <ele>190.00000</ele>
        <time>2010-01-01T06:40:55Z</time>
      </trkpt>
      <trkpt lat="43.91362660" lon="10.34133190">
        <ele>191.00000</ele>
        <time>2010-01-01T06:41:00Z</time>
      </trkpt>
      <trkpt lat="43.91354000" lon="10.34128000">
        <ele>194.00000</ele>
        <time>2010-01-01T06:41:04Z</time>
      </trkpt>
      <trkpt lat="43.91352000" lon="10.34116000">
        <ele>195.00000</ele>
        <time>2010-01-01T06:41:07Z</time>
      </trkpt>
      <trkpt lat="43.91355000" lon="10.34097000">
        <ele>197.00000</ele>
        <time>2010-01-01T06:41:13Z</time>
      </trkpt>
      <trkpt lat="43.91368000" lon="10.34033000">
        <ele>201.00000</ele>
        <time>2010-01-01T06:41:32Z</time>
      </trkpt>
      <trkpt lat="43.91376000" lon="10.34012000">
        <ele>200.00000</ele>
        <time>2010-01-01T06:41:39Z</time>
      </trkpt>
      <trkpt lat="43.91394000" lon="10.33972000">
        <ele>195.00000</ele>
        <time>2010-01-01T06:41:53Z</time>
      </trkpt>
      <trkpt lat="43.91395510" lon="10.33946510">
        <ele>190.00000</ele>
        <time>2010-01-01T06:42:00Z</time>
      </trkpt>
      <trkpt lat="43.91387000" lon="10.33935000">
        <ele>191.00000</ele>
        <time>2010-01-01T06:42:05Z</time>
      </trkpt>
      <trkpt lat="43.91339000" lon="10.33931000">
        <ele>203.00000</ele>
        <time>2010-01-01T06:42:24Z</time>
      </trkpt>
      <trkpt lat="43.91331000" lon="10.33932000">
        <ele>205.00000</ele>
        <time>2010-01-01T06:42:27Z</time>
      </trkpt>
      <trkpt lat="43.91314000" lon="10.33922000">
        <ele>206.00000</ele>
        <time>2010-01-01T06:42:35Z</time>
      </trkpt>
      <trkpt lat="43.91298000" lon="10.33908000">
        <ele>205.00000</ele>
        <time>2010-01-01T06:42:42Z</time>
      </trkpt>
      <trkpt lat="43.91228000" lon="10.33894000">
        <ele>212.00000</ele>
        <time>2010-01-01T06:43:10Z</time>
      </trkpt>
      <trkpt lat="43.91214000" lon="10.33896000">
        <ele>214.00000</ele>
        <time>2010-01-01T06:43:16Z</time>
      </trkpt>
      <trkpt lat="43.91177000" lon="10.33879000">
        <ele>210.00000</ele>
        <time>2010-01-01T06:43:32Z</time>
      </trkpt>
      <trkpt lat="43.91163000" lon="10.33868000">
        <ele>207.00000</ele>
        <time>2010-01-01T06:43:38Z</time>
      </trkpt>
      <trkpt lat="43.91140000" lon="10.33865000">
        <ele>208.00000</ele>
        <time>2010-01-01T06:43:47Z</time>
      </trkpt>
      <trkpt lat="43.91089000" lon="10.33867000">
        <ele>216.00000</ele>
        <time>2010-01-01T06:44:08Z</time>
      </trkpt>
      <trkpt lat="43.91079000" lon="10.33872000">
        <ele>217.00000</ele>
        <time>2010-01-01T06:44:12Z</time>
      </trkpt>
      <trkpt lat="43.91062000" lon="10.33885000">
        <ele>219.00000</ele>
        <time>2010-01-01T06:44:20Z</time>
      </trkpt>
      <trkpt lat="43.91044000" lon="10.33903000">
        <ele>219.00000</ele>
        <time>2010-01-01T06:44:29Z</time>
      </trkpt>
      <trkpt lat="43.91032000" lon="10.33919000">
        <ele>219.00000</ele>
        <time>2010-01-01T06:44:35Z</time>
      </trkpt>
      <trkpt lat="43.91019000" lon="10.33947000">
        <ele>218.00000</ele>
        <time>2010-01-01T06:44:45Z</time>
      </trkpt>
      <trkpt lat="43.90925580" lon="10.34213660">
        <ele>210.00000</ele>
        <time>2010-01-01T06:46:10Z</time>
      </trkpt>
      <trkpt lat="43.90817000" lon="10.34503000">
        <ele>203.00000</ele>
        <time>2010-01-01T06:47:45Z</time>
      </trkpt>
      <trkpt lat="43.90807000" lon="10.34541000">
        <ele>203.00000</ele>
        <time>2010-01-01T06:47:56Z</time>
      </trkpt>
      <trkpt lat="43.90801000" lon="10.34577000">
        <ele>204.00000</ele>
        <time>2010-01-01T06:48:07Z</time>
      </trkpt>
      <trkpt lat="43.90788000" lon="10.34692000">
        <ele>209.00000</ele>
        <time>2010-01-01T06:48:40Z</time>
      </trkpt>
      <trkpt lat="43.90784000" lon="10.34712000">
        <ele>208.00000</ele>
        <time>2010-01-01T06:48:46Z</time>
      </trkpt>
      <trkpt lat="43.90775000" lon="10.34734000">
        <ele>209.00000</ele>
        <time>2010-01-01T06:48:54Z</time>
      </trkpt>
      <trkpt lat="43.90690000" lon="10.34887000">
        <ele>205.00000</ele>
        <time>2010-01-01T06:49:49Z</time>
      </trkpt>
      <trkpt lat="43.90676000" lon="10.34902000">
        <ele>204.00000</ele>
        <time>2010-01-01T06:49:57Z</time>
      </trkpt>
      <trkpt lat="43.90655000" lon="10.34938000">
        <ele>203.00000</ele>
        <time>2010-01-01T06:50:10Z</time>
      </trkpt>
      <trkpt lat="43.90628000" lon="10.35010000">
        <ele>206.00000</ele>
        <time>2010-01-01T06:50:33Z</time>
      </trkpt>
      <trkpt lat="43.90608660" lon="10.35054800">
        <ele>204.00000</ele>
        <time>2010-01-01T06:50:48Z</time>
      </trkpt>
      <trkpt lat="43.90547000" lon="10.35143000">
        <ele>204.00000</ele>
        <time>2010-01-01T06:51:24Z</time>
      </trkpt>
      <trkpt lat="43.90527000" lon="10.35176000">
        <ele>202.00000</ele>
        <time>2010-01-01T06:51:36Z</time>
      </trkpt>
      <trkpt lat="43.90516000" lon="10.35214000">
        <ele>204.00000</ele>
        <time>2010-01-01T06:51:48Z</time>
      </trkpt>
      <trkpt lat="43.90507000" lon="10.35276000">
        <ele>202.00000</ele>
        <time>2010-01-01T06:52:06Z</time>
      </trkpt>
      <trkpt lat="43.90489000" lon="10.35319000">
        <ele>201.00000</ele>
        <time>2010-01-01T06:52:21Z</time>
      </trkpt>
      <trkpt lat="43.90461000" lon="10.35355000">
        <ele>198.00000</ele>
        <time>2010-01-01T06:52:36Z</time>
      </trkpt>
      <trkpt lat="43.90415000" lon="10.35440000">
        <ele>196.00000</ele>
        <time>2010-01-01T06:53:07Z</time>
      </trkpt>
      <trkpt lat="43.90388000" lon="10.35518000">
        <ele>191.00000</ele>
        <time>2010-01-01T06:53:32Z</time>
      </trkpt>
      <trkpt lat="43.90379850" lon="10.35591240">
        <ele>184.00000</ele>
        <time>2010-01-01T06:53:53Z</time>
      </trkpt>
      <trkpt lat="43.90381000" lon="10.35637000">
        <ele>182.00000</ele>
        <time>2010-01-01T06:54:06Z</time>
      </trkpt>
      <trkpt lat="43.90398000" lon="10.35710000">
        <ele>188.00000</ele>
        <time>2010-01-01T06:54:28Z</time>
      </trkpt>
      <trkpt lat="43.90506000" lon="10.36001000">
        <ele>197.00000</ele>
        <time>2010-01-01T06:56:03Z</time>
      </trkpt>
      <trkpt lat="43.90521000" lon="10.36052000">
        <ele>194.00000</ele>
        <time>2010-01-01T06:56:19Z</time>
      </trkpt>
      <trkpt lat="43.90530000" lon="10.36135000">
        <ele>185.00000</ele>
        <time>2010-01-01T06:56:43Z</time>
      </trkpt>
      <trkpt lat="43.90528000" lon="10.36184000">
        <ele>177.00000</ele>
        <time>2010-01-01T06:56:57Z</time>
      </trkpt>
      <trkpt lat="43.90473000" lon="10.36526000">
        <ele>177.00000</ele>
        <time>2010-01-01T06:58:38Z</time>
      </trkpt>
      <trkpt lat="43.90474000" lon="10.36694000">
        <ele>169.00000</ele>
        <time>2010-01-01T06:59:26Z</time>
      </trkpt>
      <trkpt lat="43.90455000" lon="10.36785000">
        <ele>163.00000</ele>
        <time>2010-01-01T06:59:54Z</time>
      </trkpt>
      <trkpt lat="43.90424000" lon="10.36866000">
        <ele>163.00000</ele>
        <time>2010-01-01T07:00:20Z</time>
      </trkpt>
      <trkpt lat="43.90401000" lon="10.36940000">
        <ele>160.00000</ele>
        <time>2010-01-01T07:00:43Z</time>
      </trkpt>
      <trkpt lat="43.90373000" lon="10.37094000">
        <ele>165.00000</ele>
        <time>2010-01-01T07:01:29Z</time>
      </trkpt>
      <trkpt lat="43.90360520" lon="10.37334680">
        <ele>159.00000</ele>
        <time>2010-01-01T07:02:39Z</time>
      </trkpt>
      <trkpt lat="43.90335010" lon="10.37431240">
        <ele>158.00000</ele>
        <time>2010-01-01T07:03:08Z</time>
      </trkpt>
      <trkpt lat="43.90236070" lon="10.37558910">
        <ele>156.00000</ele>
        <time>2010-01-01T07:04:03Z</time>
      </trkpt>
      <trkpt lat="43.90211330" lon="10.37601820">
        <ele>151.00000</ele>
        <time>2010-01-01T07:04:18Z</time>
      </trkpt>
      <trkpt lat="43.90143000" lon="10.38003000">
        <ele>130.00000</ele>
        <time>2010-01-01T07:06:17Z</time>
      </trkpt>
      <trkpt lat="43.90054000" lon="10.38292000">
        <ele>125.00000</ele>
        <time>2010-01-01T07:07:48Z</time>
      </trkpt>
      <trkpt lat="43.89964000" lon="10.38652000">
        <ele>119.00000</ele>
        <time>2010-01-01T07:09:38Z</time>
      </trkpt>
      <trkpt lat="43.89941000" lon="10.38716000">
        <ele>118.00000</ele>
        <time>2010-01-01T07:09:59Z</time>
      </trkpt>
      <trkpt lat="43.89873000" lon="10.38874000">
        <ele>118.00000</ele>
        <time>2010-01-01T07:10:52Z</time>
      </trkpt>
      <trkpt lat="43.89859000" lon="10.39021000">
        <ele>115.00000</ele>
        <time>2010-01-01T07:11:34Z</time>
      </trkpt>
      <trkpt lat="43.89868000" lon="10.39292000">
        <ele>115.00000</ele>
        <time>2010-01-01T07:12:53Z</time>
      </trkpt>
      <trkpt lat="43.89820000" lon="10.39300000">
        <ele>113.00000</ele>
        <time>2010-01-01T07:13:12Z</time>
      </trkpt>
      <trkpt lat="43.89779000" lon="10.39301000">
        <ele>116.00000</ele>
        <time>2010-01-01T07:13:28Z</time>
      </trkpt>
      <trkpt lat="43.89734000" lon="10.39298000">
        <ele>119.00000</ele>
        <time>2010-01-01T07:13:46Z</time>
      </trkpt>
      <trkpt lat="43.89674000" lon="10.39306000">
        <ele>132.00000</ele>
        <time>2010-01-01T07:14:11Z</time>
      </trkpt>
      <trkpt lat="43.89661000" lon="10.39340000">
        <ele>134.00000</ele>
        <time>2010-01-01T07:14:22Z</time>
      </trkpt>
      <trkpt lat="43.89667000" lon="10.39399000">
        <ele>135.00000</ele>
        <time>2010-01-01T07:14:39Z</time>
      </trkpt>
      <trkpt lat="43.89666000" lon="10.39424000">
        <ele>137.00000</ele>
        <time>2010-01-01T07:14:46Z</time>
      </trkpt>
      <trkpt lat="43.89652000" lon="10.39515000">
        <ele>141.00000</ele>
        <time>2010-01-01T07:15:13Z</time>
      </trkpt>
      <trkpt lat="43.89649000" lon="10.39530000">
        <ele>141.00000</ele>
        <time>2010-01-01T07:15:17Z</time>
      </trkpt>
      <trkpt lat="43.89643000" lon="10.39530000">
        <ele>143.00000</ele>
        <time>2010-01-01T07:15:20Z</time>
      </trkpt>
      <trkpt lat="43.89643000" lon="10.39511000">
        <ele>144.00000</ele>
        <time>2010-01-01T07:15:25Z</time>
      </trkpt>
      <trkpt lat="43.89636000" lon="10.39490000">
        <ele>149.00000</ele>
        <time>2010-01-01T07:15:32Z</time>
      </trkpt>
      <trkpt lat="43.89635000" lon="10.39464000">
        <ele>152.00000</ele>
        <time>2010-01-01T07:15:39Z</time>
      </trkpt>
      <trkpt lat="43.89644000" lon="10.39417000">
        <ele>146.00000</ele>
        <time>2010-01-01T07:15:53Z</time>
      </trkpt>
      <trkpt lat="43.89640000" lon="10.39406000">
        <ele>146.00000</ele>
        <time>2010-01-01T07:15:57Z</time>
      </trkpt>
      <trkpt lat="43.89621000" lon="10.39400000">
        <ele>151.00000</ele>
        <time>2010-01-01T07:16:05Z</time>
      </trkpt>
      <trkpt lat="43.89597000" lon="10.39381000">
        <ele>154.00000</ele>
        <time>2010-01-01T07:16:16Z</time>
      </trkpt>
      <trkpt lat="43.89535000" lon="10.39336000">
        <ele>168.00000</ele>
        <time>2010-01-01T07:16:44Z</time>
      </trkpt>
      <trkpt lat="43.89502000" lon="10.39312000">
        <ele>168.00000</ele>
        <time>2010-01-01T07:16:59Z</time>
      </trkpt>
      <trkpt lat="43.89445000" lon="10.39321000">
        <ele>178.00000</ele>
        <time>2010-01-01T07:17:22Z</time>
      </trkpt>
      <trkpt lat="43.89394000" lon="10.39321000">
        <ele>176.00000</ele>
        <time>2010-01-01T07:17:42Z</time>
      </trkpt>
      <trkpt lat="43.89378000" lon="10.39332000">
        <ele>177.00000</ele>
        <time>2010-01-01T07:17:49Z</time>
      </trkpt>
      <trkpt lat="43.89370000" lon="10.39352000">
        <ele>181.00000</ele>
        <time>2010-01-01T07:17:56Z</time>
      </trkpt>
      <trkpt lat="43.89302000" lon="10.39425000">
        <ele>198.00000</ele>
        <time>2010-01-01T07:18:30Z</time>
      </trkpt>
      <trkpt lat="43.89293000" lon="10.39423000">
        <ele>199.00000</ele>
        <time>2010-01-01T07:18:34Z</time>
      </trkpt>
      <trkpt lat="43.89283000" lon="10.39416000">
        <ele>200.00000</ele>
        <time>2010-01-01T07:18:38Z</time>
      </trkpt>
      <trkpt lat="43.89278000" lon="10.39407000">
        <ele>199.00000</ele>
        <time>2010-01-01T07:18:42Z</time>
      </trkpt>
      <trkpt lat="43.89281000" lon="10.39374000">
        <ele>190.00000</ele>
        <time>2010-01-01T07:18:51Z</time>
      </trkpt>
      <trkpt lat="43.89267370" lon="10.39357600">
        <ele>189.00000</ele>
        <time>2010-01-01T07:18:59Z</time>
      </trkpt>
      <trkpt lat="43.89244950" lon="10.39361350">
        <ele>193.00000</ele>
        <time>2010-01-01T07:19:08Z</time>
      </trkpt>
      <trkpt lat="43.89231810" lon="10.39370470">
        <ele>196.00000</ele>
        <time>2010-01-01T07:19:14Z</time>
      </trkpt>
      <trkpt lat="43.89222000" lon="10.39368000">
        <ele>197.00000</ele>
        <time>2010-01-01T07:19:17Z</time>
      </trkpt>
      <trkpt lat="43.89193000" lon="10.39316000">
        <ele>195.00000</ele>
        <time>2010-01-01T07:19:36Z</time>
      </trkpt>
      <trkpt lat="43.89187000" lon="10.39312000">
        <ele>193.00000</ele>
        <time>2010-01-01T07:19:39Z</time>
      </trkpt>
      <trkpt lat="43.89160000" lon="10.39315000">
        <ele>187.00000</ele>
        <time>2010-01-01T07:19:50Z</time>
      </trkpt>
      <trkpt lat="43.89130000" lon="10.39272000">
        <ele>180.00000</ele>
        <time>2010-01-01T07:20:07Z</time>
      </trkpt>
      <trkpt lat="43.89130000" lon="10.39264000">
        <ele>180.00000</ele>
        <time>2010-01-01T07:20:10Z</time>
      </trkpt>
      <trkpt lat="43.89140000" lon="10.39250000">
        <ele>183.00000</ele>
        <time>2010-01-01T07:20:15Z</time>
      </trkpt>
      <trkpt lat="43.89137000" lon="10.39244000">
        <ele>182.00000</ele>
        <time>2010-01-01T07:20:17Z</time>
      </trkpt>
      <trkpt lat="43.89132000" lon="10.39245000">
        <ele>181.00000</ele>
        <time>2010-01-01T07:20:19Z</time>
      </trkpt>
      <trkpt lat="43.89116000" lon="10.39265000">
        <ele>177.00000</ele>
        <time>2010-01-01T07:20:28Z</time>
      </trkpt>
      <trkpt lat="43.89118000" lon="10.39278000">
        <ele>177.00000</ele>
        <time>2010-01-01T07:20:32Z</time>
      </trkpt>
      <trkpt lat="43.89138000" lon="10.39310000">
        <ele>180.00000</ele>
        <time>2010-01-01T07:20:44Z</time>
      </trkpt>
      <trkpt lat="43.89139000" lon="10.39314000">
        <ele>180.00000</ele>
        <time>2010-01-01T07:20:45Z</time>
      </trkpt>
      <trkpt lat="43.89136000" lon="10.39317000">
        <ele>179.00000</ele>
        <time>2010-01-01T07:20:47Z</time>
      </trkpt>
      <trkpt lat="43.89130000" lon="10.39313000">
        <ele>178.00000</ele>
        <time>2010-01-01T07:20:49Z</time>
      </trkpt>
      <trkpt lat="43.89115000" lon="10.39293000">
        <ele>175.00000</ele>
        <time>2010-01-01T07:20:58Z</time>
      </trkpt>
      <trkpt lat="43.89095000" lon="10.39287000">
        <ele>171.00000</ele>
        <time>2010-01-01T07:21:06Z</time>
      </trkpt>
      <trkpt lat="43.89042000" lon="10.39301000">
        <ele>166.00000</ele>
        <time>2010-01-01T07:21:28Z</time>
      </trkpt>
      <trkpt lat="43.89037000" lon="10.39299000">
        <ele>165.00000</ele>
        <time>2010-01-01T07:21:30Z</time>
      </trkpt>
      <trkpt lat="43.89037000" lon="10.39290000">
        <ele>165.00000</ele>
        <time>2010-01-01T07:21:32Z</time>
      </trkpt>
      <trkpt lat="43.89053000" lon="10.39263000">
        <ele>166.00000</ele>
        <time>2010-01-01T07:21:42Z</time>
      </trkpt>
      <trkpt lat="43.89070000" lon="10.39241000">
        <ele>166.00000</ele>
        <time>2010-01-01T07:21:52Z</time>
      </trkpt>
      <trkpt lat="43.89068000" lon="10.39235000">
        <ele>165.00000</ele>
        <time>2010-01-01T07:21:53Z</time>
      </trkpt>
      <trkpt lat="43.89054000" lon="10.39235000">
        <ele>163.00000</ele>
        <time>2010-01-01T07:21:59Z</time>
      </trkpt>
      <trkpt lat="43.89001000" lon="10.39312000">
        <ele>160.00000</ele>
        <time>2010-01-01T07:22:30Z</time>
      </trkpt>
      <trkpt lat="43.88980000" lon="10.39332000">
        <ele>153.00000</ele>
        <time>2010-01-01T07:22:40Z</time>
      </trkpt>
      <trkpt lat="43.88980000" lon="10.39343000">
        <ele>151.00000</ele>
        <time>2010-01-01T07:22:43Z</time>
      </trkpt>
      <trkpt lat="43.88985000" lon="10.39347000">
        <ele>152.00000</ele>
        <time>2010-01-01T07:22:45Z</time>
      </trkpt>
      <trkpt lat="43.89017000" lon="10.39346000">
        <ele>157.00000</ele>
        <time>2010-01-01T07:22:58Z</time>
      </trkpt>
      <trkpt lat="43.89021000" lon="10.39352000">
        <ele>156.00000</ele>
        <time>2010-01-01T07:23:01Z</time>
      </trkpt>
      <trkpt lat="43.89018000" lon="10.39360000">
        <ele>154.00000</ele>
        <time>2010-01-01T07:23:03Z</time>
      </trkpt>
      <trkpt lat="43.88985000" lon="10.39362000">
        <ele>149.00000</ele>
        <time>2010-01-01T07:23:16Z</time>
      </trkpt>
      <trkpt lat="43.88962000" lon="10.39345000">
        <ele>147.00000</ele>
        <time>2010-01-01T07:23:27Z</time>
      </trkpt>
      <trkpt lat="43.88959000" lon="10.39339000">
        <ele>148.00000</ele>
        <time>2010-01-01T07:23:29Z</time>
      </trkpt>
      <trkpt lat="43.88959000" lon="10.39331000">
        <ele>148.00000</ele>
        <time>2010-01-01T07:23:31Z</time>
      </trkpt>
      <trkpt lat="43.88967000" lon="10.39304000">
        <ele>151.00000</ele>
        <time>2010-01-01T07:23:40Z</time>
      </trkpt>
      <trkpt lat="43.88966000" lon="10.39300000">
        <ele>150.00000</ele>
        <time>2010-01-01T07:23:41Z</time>
      </trkpt>
      <trkpt lat="43.88960000" lon="10.39299000">
        <ele>147.00000</ele>
        <time>2010-01-01T07:23:43Z</time>
      </trkpt>
      <trkpt lat="43.88936000" lon="10.39318000">
        <ele>141.00000</ele>
        <time>2010-01-01T07:23:54Z</time>
      </trkpt>
      <trkpt lat="43.88932000" lon="10.39329000">
        <ele>141.00000</ele>
        <time>2010-01-01T07:23:58Z</time>
      </trkpt>
      <trkpt lat="43.88936000" lon="10.39343000">
        <ele>142.00000</ele>
        <time>2010-01-01T07:24:02Z</time>
      </trkpt>
      <trkpt lat="43.88940000" lon="10.39369000">
        <ele>141.00000</ele>
        <time>2010-01-01T07:24:10Z</time>
      </trkpt>
      <trkpt lat="43.88934000" lon="10.39396000">
        <ele>138.00000</ele>
        <time>2010-01-01T07:24:18Z</time>
      </trkpt>
      <trkpt lat="43.88910000" lon="10.39417000">
        <ele>136.00000</ele>
        <time>2010-01-01T07:24:30Z</time>
      </trkpt>
      <trkpt lat="43.88869000" lon="10.39434000">
        <ele>130.00000</ele>
        <time>2010-01-01T07:24:47Z</time>
      </trkpt>
      <trkpt lat="43.88823000" lon="10.39417000">
        <ele>128.00000</ele>
        <time>2010-01-01T07:25:06Z</time>
      </trkpt>
      <trkpt lat="43.88787000" lon="10.39395000">
        <ele>119.00000</ele>
        <time>2010-01-01T07:25:21Z</time>
      </trkpt>
      <trkpt lat="43.88773000" lon="10.39396000">
        <ele>117.00000</ele>
        <time>2010-01-01T07:25:27Z</time>
      </trkpt>
      <trkpt lat="43.88768000" lon="10.39410000">
        <ele>118.00000</ele>
        <time>2010-01-01T07:25:32Z</time>
      </trkpt>
      <trkpt lat="43.88769000" lon="10.39430000">
        <ele>120.00000</ele>
        <time>2010-01-01T07:25:37Z</time>
      </trkpt>
      <trkpt lat="43.88767000" lon="10.39450000">
        <ele>121.00000</ele>
        <time>2010-01-01T07:25:43Z</time>
      </trkpt>
      <trkpt lat="43.88760000" lon="10.39459000">
        <ele>120.00000</ele>
        <time>2010-01-01T07:25:47Z</time>
      </trkpt>
      <trkpt lat="43.88740000" lon="10.39469000">
        <ele>117.00000</ele>
        <time>2010-01-01T07:25:56Z</time>
      </trkpt>
      <trkpt lat="43.88699000" lon="10.39478000">
        <ele>108.00000</ele>
        <time>2010-01-01T07:26:12Z</time>
      </trkpt>
      <trkpt lat="43.88676000" lon="10.39502000">
        <ele>104.00000</ele>
        <time>2010-01-01T07:26:24Z</time>
      </trkpt>
      <trkpt lat="43.88671000" lon="10.39526000">
        <ele>102.00000</ele>
        <time>2010-01-01T07:26:31Z</time>
      </trkpt>
      <trkpt lat="43.88675000" lon="10.39533000">
        <ele>102.00000</ele>
        <time>2010-01-01T07:26:33Z</time>
      </trkpt>
      <trkpt lat="43.88697000" lon="10.39549000">
        <ele>105.00000</ele>
        <time>2010-01-01T07:26:43Z</time>
      </trkpt>
      <trkpt lat="43.88699000" lon="10.39556000">
        <ele>104.00000</ele>
        <time>2010-01-01T07:26:46Z</time>
      </trkpt>
      <trkpt lat="43.88695000" lon="10.39559000">
        <ele>103.00000</ele>
        <time>2010-01-01T07:26:47Z</time>
      </trkpt>
      <trkpt lat="43.88655000" lon="10.39556000">
        <ele>98.000000</ele>
        <time>2010-01-01T07:27:03Z</time>
      </trkpt>
      <trkpt lat="43.88610000" lon="10.39558000">
        <ele>95.000000</ele>
        <time>2010-01-01T07:27:21Z</time>
      </trkpt>
      <trkpt lat="43.88597000" lon="10.39556000">
        <ele>93.000000</ele>
        <time>2010-01-01T07:27:27Z</time>
      </trkpt>
      <trkpt lat="43.88586000" lon="10.39548000">
        <ele>90.000000</ele>
        <time>2010-01-01T07:27:32Z</time>
      </trkpt>
      <trkpt lat="43.88578000" lon="10.39530000">
        <ele>88.000000</ele>
        <time>2010-01-01T07:27:38Z</time>
      </trkpt>
      <trkpt lat="43.88572000" lon="10.39499000">
        <ele>86.000000</ele>
        <time>2010-01-01T07:27:47Z</time>
      </trkpt>
      <trkpt lat="43.88569000" lon="10.39492000">
        <ele>86.000000</ele>
        <time>2010-01-01T07:27:49Z</time>
      </trkpt>
      <trkpt lat="43.88563000" lon="10.39497000">
        <ele>85.000000</ele>
        <time>2010-01-01T07:27:52Z</time>
      </trkpt>
      <trkpt lat="43.88525860" lon="10.39563050">
        <ele>84.000000</ele>
        <time>2010-01-01T07:28:16Z</time>
      </trkpt>
      <trkpt lat="43.88486000" lon="10.39665000">
        <ele>85.000000</ele>
        <time>2010-01-01T07:28:50Z</time>
      </trkpt>
      <trkpt lat="43.88464000" lon="10.39773000">
        <ele>76.000000</ele>
        <time>2010-01-01T07:29:22Z</time>
      </trkpt>
      <trkpt lat="43.88458000" lon="10.39880000">
        <ele>74.000000</ele>
        <time>2010-01-01T07:29:53Z</time>
      </trkpt>
      <trkpt lat="43.88437000" lon="10.40005000">
        <ele>80.000000</ele>
        <time>2010-01-01T07:30:30Z</time>
      </trkpt>
      <trkpt lat="43.88418000" lon="10.40079000">
        <ele>81.000000</ele>
        <time>2010-01-01T07:30:53Z</time>
      </trkpt>
      <trkpt lat="43.88391310" lon="10.40129540">
        <ele>75.000000</ele>
        <time>2010-01-01T07:31:11Z</time>
      </trkpt>
      <trkpt lat="43.88215780" lon="10.40514700">
        <ele>66.000000</ele>
        <time>2010-01-01T07:33:22Z</time>
      </trkpt>
      <trkpt lat="43.88187000" lon="10.40629000">
        <ele>61.000000</ele>
        <time>2010-01-01T07:33:57Z</time>
      </trkpt>
      <trkpt lat="43.88138000" lon="10.40738000">
        <ele>61.000000</ele>
        <time>2010-01-01T07:34:34Z</time>
      </trkpt>
      <trkpt lat="43.88107000" lon="10.40773000">
        <ele>60.000000</ele>
        <time>2010-01-01T07:34:50Z</time>
      </trkpt>
      <trkpt lat="43.88082000" lon="10.40803310">
        <ele>62.000000</ele>
        <time>2010-01-01T07:35:04Z</time>
      </trkpt>
      <trkpt lat="43.88013000" lon="10.40959000">
        <ele>58.000000</ele>
        <time>2010-01-01T07:35:56Z</time>
      </trkpt>
      <trkpt lat="43.87910000" lon="10.41132000">
        <ele>52.000000</ele>
        <time>2010-01-01T07:37:01Z</time>
      </trkpt>
      <trkpt lat="43.87890000" lon="10.41193000">
        <ele>53.000000</ele>
        <time>2010-01-01T07:37:20Z</time>
      </trkpt>
      <trkpt lat="43.87869000" lon="10.41261000">
        <ele>52.000000</ele>
        <time>2010-01-01T07:37:42Z</time>
      </trkpt>
      <trkpt lat="43.87841000" lon="10.41320000">
        <ele>50.000000</ele>
        <time>2010-01-01T07:38:02Z</time>
      </trkpt>
      <trkpt lat="43.87813000" lon="10.41355000">
        <ele>50.000000</ele>
        <time>2010-01-01T07:38:17Z</time>
      </trkpt>
      <trkpt lat="43.87761000" lon="10.41397000">
        <ele>50.000000</ele>
        <time>2010-01-01T07:38:41Z</time>
      </trkpt>
      <trkpt lat="43.87742000" lon="10.41438000">
        <ele>47.000000</ele>
        <time>2010-01-01T07:38:55Z</time>
      </trkpt>
      <trkpt lat="43.87723000" lon="10.41537000">
        <ele>48.000000</ele>
        <time>2010-01-01T07:39:25Z</time>
      </trkpt>
      <trkpt lat="43.87655000" lon="10.41671000">
        <ele>45.000000</ele>
        <time>2010-01-01T07:40:12Z</time>
      </trkpt>
      <trkpt lat="43.87620000" lon="10.41769000">
        <ele>45.000000</ele>
        <time>2010-01-01T07:40:44Z</time>
      </trkpt>
      <trkpt lat="43.87576000" lon="10.41872000">
        <ele>42.000000</ele>
        <time>2010-01-01T07:41:18Z</time>
      </trkpt>
      <trkpt lat="43.87532000" lon="10.41953000">
        <ele>42.000000</ele>
        <time>2010-01-01T07:41:48Z</time>
      </trkpt>
      <trkpt lat="43.87504000" lon="10.42061000">
        <ele>38.000000</ele>
        <time>2010-01-01T07:42:21Z</time>
      </trkpt>
      <trkpt lat="43.87407000" lon="10.42386000">
        <ele>38.000000</ele>
        <time>2010-01-01T07:44:02Z</time>
      </trkpt>
      <trkpt lat="43.87380000" lon="10.42448000">
        <ele>38.000000</ele>
        <time>2010-01-01T07:44:23Z</time>
      </trkpt>
      <trkpt lat="43.87339000" lon="10.42490000">
        <ele>32.000000</ele>
        <time>2010-01-01T07:44:44Z</time>
      </trkpt>
      <trkpt lat="43.87290000" lon="10.42583000">
        <ele>29.000000</ele>
        <time>2010-01-01T07:45:17Z</time>
      </trkpt>
      <trkpt lat="43.87266860" lon="10.42690510">
        <ele>31.000000</ele>
        <time>2010-01-01T07:45:49Z</time>
      </trkpt>
      <trkpt lat="43.87206000" lon="10.42825000">
        <ele>28.000000</ele>
        <time>2010-01-01T07:46:35Z</time>
      </trkpt>
      <trkpt lat="43.87150000" lon="10.42937000">
        <ele>30.000000</ele>
        <time>2010-01-01T07:47:14Z</time>
      </trkpt>
      <trkpt lat="43.87125000" lon="10.42960000">
        <ele>30.000000</ele>
        <time>2010-01-01T07:47:26Z</time>
      </trkpt>
      <trkpt lat="43.87064000" lon="10.43005000">
        <ele>30.000000</ele>
        <time>2010-01-01T07:47:54Z</time>
      </trkpt>
      <trkpt lat="43.86998000" lon="10.43041000">
        <ele>28.000000</ele>
        <time>2010-01-01T07:48:22Z</time>
      </trkpt>
      <trkpt lat="43.86979000" lon="10.43058000">
        <ele>29.000000</ele>
        <time>2010-01-01T07:48:31Z</time>
      </trkpt>
      <trkpt lat="43.86938000" lon="10.43107000">
        <ele>27.000000</ele>
        <time>2010-01-01T07:48:53Z</time>
      </trkpt>
      <trkpt lat="43.86883000" lon="10.43135000">
        <ele>28.000000</ele>
        <time>2010-01-01T07:49:17Z</time>
      </trkpt>
      <trkpt lat="43.86855000" lon="10.43157000">
        <ele>28.000000</ele>
        <time>2010-01-01T07:49:29Z</time>
      </trkpt>
      <trkpt lat="43.86786000" lon="10.43247000">
        <ele>28.000000</ele>
        <time>2010-01-01T07:50:07Z</time>
      </trkpt>
      <trkpt lat="43.86679000" lon="10.43363000">
        <ele>24.000000</ele>
        <time>2010-01-01T07:51:02Z</time>
      </trkpt>
      <trkpt lat="43.86636000" lon="10.43408000">
        <ele>24.000000</ele>
        <time>2010-01-01T07:51:23Z</time>
      </trkpt>
      <trkpt lat="43.86593180" lon="10.43636260">
        <ele>27.000000</ele>
        <time>2010-01-01T07:52:31Z</time>
      </trkpt>
      <trkpt lat="43.86604000" lon="10.43676490">
        <ele>24.000000</ele>
        <time>2010-01-01T07:52:44Z</time>
      </trkpt>
      <trkpt lat="43.86654280" lon="10.43709750">
        <ele>26.000000</ele>
        <time>2010-01-01T07:53:06Z</time>
      </trkpt>
      <trkpt lat="43.86643450" lon="10.43762320">
        <ele>28.000000</ele>
        <time>2010-01-01T07:53:22Z</time>
      </trkpt>
      <trkpt lat="43.86615610" lon="10.43812750">
        <ele>24.000000</ele>
        <time>2010-01-01T07:53:40Z</time>
      </trkpt>
      <trkpt lat="43.86584670" lon="10.43848150">
        <ele>23.000000</ele>
        <time>2010-01-01T07:53:56Z</time>
      </trkpt>
      <trkpt lat="43.86510410" lon="10.43895360">
        <ele>25.000000</ele>
        <time>2010-01-01T07:54:29Z</time>
      </trkpt>
      <trkpt lat="43.86477920" lon="10.43972610">
        <ele>23.000000</ele>
        <time>2010-01-01T07:54:55Z</time>
      </trkpt>
      <trkpt lat="43.86467090" lon="10.43988700">
        <ele>20.000000</ele>
        <time>2010-01-01T07:55:01Z</time>
      </trkpt>
      <trkpt lat="43.86428420" lon="10.44020890">
        <ele>20.000000</ele>
        <time>2010-01-01T07:55:19Z</time>
      </trkpt>
      <trkpt lat="43.86388190" lon="10.44038050">
        <ele>21.000000</ele>
        <time>2010-01-01T07:55:36Z</time>
      </trkpt>
      <trkpt lat="43.86356480" lon="10.44042340">
        <ele>22.000000</ele>
        <time>2010-01-01T07:55:49Z</time>
      </trkpt>
      <trkpt lat="43.86337910" lon="10.44054150">
        <ele>21.000000</ele>
        <time>2010-01-01T07:55:57Z</time>
      </trkpt>
      <trkpt lat="43.86325540" lon="10.44069170">
        <ele>22.000000</ele>
        <time>2010-01-01T07:56:04Z</time>
      </trkpt>
      <trkpt lat="43.86306970" lon="10.44078820">
        <ele>23.000000</ele>
        <time>2010-01-01T07:56:11Z</time>
      </trkpt>
      <trkpt lat="43.86271390" lon="10.44076680">
        <ele>22.000000</ele>
        <time>2010-01-01T07:56:26Z</time>
      </trkpt>
      <trkpt lat="43.86225750" lon="10.44113150">
        <ele>21.000000</ele>
        <time>2010-01-01T07:56:47Z</time>
      </trkpt>
      <trkpt lat="43.86167730" lon="10.44185040">
        <ele>18.000000</ele>
        <time>2010-01-01T07:57:18Z</time>
      </trkpt>
      <trkpt lat="43.86158450" lon="10.44206500">
        <ele>17.000000</ele>
        <time>2010-01-01T07:57:25Z</time>
      </trkpt>
      <trkpt lat="43.86146070" lon="10.44259070">
        <ele>16.000000</ele>
        <time>2010-01-01T07:57:41Z</time>
      </trkpt>
      <trkpt lat="43.86125960" lon="10.44276230">
        <ele>16.000000</ele>
        <time>2010-01-01T07:57:51Z</time>
      </trkpt>
      <trkpt lat="43.86044730" lon="10.44288030">
        <ele>17.000000</ele>
        <time>2010-01-01T07:58:23Z</time>
      </trkpt>
      <trkpt lat="43.85989030" lon="10.44309490">
        <ele>16.000000</ele>
        <time>2010-01-01T07:58:46Z</time>
      </trkpt>
      <trkpt lat="43.85962730" lon="10.44326660">
        <ele>16.000000</ele>
        <time>2010-01-01T07:58:58Z</time>
      </trkpt>
      <trkpt lat="43.85914770" lon="10.44413560">
        <ele>18.000000</ele>
        <time>2010-01-01T07:59:30Z</time>
      </trkpt>
      <trkpt lat="43.85917090" lon="10.44459700">
        <ele>18.000000</ele>
        <time>2010-01-01T07:59:43Z</time>
      </trkpt>
      <trkpt lat="43.85894660" lon="10.44532650">
        <ele>14.000000</ele>
        <time>2010-01-01T08:00:06Z</time>
      </trkpt>
      <trkpt lat="43.85892330" lon="10.44573420">
        <ele>13.000000</ele>
        <time>2010-01-01T08:00:18Z</time>
      </trkpt>
      <trkpt lat="43.85904710" lon="10.44580930">
        <ele>14.000000</ele>
        <time>2010-01-01T08:00:23Z</time>
      </trkpt>
      <trkpt lat="43.85989030" lon="10.44592730">
        <ele>15.000000</ele>
        <time>2010-01-01T08:00:57Z</time>
      </trkpt>
      <trkpt lat="43.86008370" lon="10.44630280">
        <ele>16.000000</ele>
        <time>2010-01-01T08:01:10Z</time>
      </trkpt>
      <trkpt lat="43.86002960" lon="10.44678560">
        <ele>15.000000</ele>
        <time>2010-01-01T08:01:24Z</time>
      </trkpt>
      <trkpt lat="43.85979750" lon="10.44759030">
        <ele>15.000000</ele>
        <time>2010-01-01T08:01:49Z</time>
      </trkpt>
      <trkpt lat="43.85963510" lon="10.44804090">
        <ele>16.000000</ele>
        <time>2010-01-01T08:02:04Z</time>
      </trkpt>
      <trkpt lat="43.85959640" lon="10.44870610">
        <ele>16.000000</ele>
        <time>2010-01-01T08:02:23Z</time>
      </trkpt>
      <trkpt lat="43.85931010" lon="10.44934980">
        <ele>16.000000</ele>
        <time>2010-01-01T08:02:45Z</time>
      </trkpt>
      <trkpt lat="43.85931010" lon="10.44981120">
        <ele>16.000000</ele>
        <time>2010-01-01T08:02:58Z</time>
      </trkpt>
      <trkpt lat="43.85923280" lon="10.45047640">
        <ele>18.000000</ele>
        <time>2010-01-01T08:03:18Z</time>
      </trkpt>
      <trkpt lat="43.85934110" lon="10.45116300">
        <ele>19.000000</ele>
        <time>2010-01-01T08:03:38Z</time>
      </trkpt>
      <trkpt lat="43.85931010" lon="10.45129170">
        <ele>18.000000</ele>
        <time>2010-01-01T08:03:42Z</time>
      </trkpt>
      <trkpt lat="43.85905490" lon="10.45119520">
        <ele>17.000000</ele>
        <time>2010-01-01T08:03:53Z</time>
      </trkpt>
      <trkpt lat="43.85878000" lon="10.45117000">
        <ele>16.000000</ele>
        <time>2010-01-01T08:04:04Z</time>
      </trkpt>
      <trkpt lat="43.85885000" lon="10.45145000">
        <ele>16.000000</ele>
        <time>2010-01-01T08:04:12Z</time>
      </trkpt>
      <trkpt lat="43.85879000" lon="10.45209000">
        <ele>15.000000</ele>
        <time>2010-01-01T08:04:31Z</time>
      </trkpt>
      <trkpt lat="43.85862000" lon="10.45315000">
        <ele>14.000000</ele>
        <time>2010-01-01T08:05:02Z</time>
      </trkpt>
      <trkpt lat="43.85861000" lon="10.45439000">
        <ele>15.000000</ele>
        <time>2010-01-01T08:05:38Z</time>
      </trkpt>
      <trkpt lat="43.85872000" lon="10.45499000">
        <ele>19.000000</ele>
        <time>2010-01-01T08:05:56Z</time>
      </trkpt>
      <trkpt lat="43.85887000" lon="10.45533000">
        <ele>19.000000</ele>
        <time>2010-01-01T08:06:07Z</time>
      </trkpt>
      <trkpt lat="43.85898000" lon="10.45579000">
        <ele>19.000000</ele>
        <time>2010-01-01T08:06:21Z</time>
      </trkpt>
      <trkpt lat="43.85898000" lon="10.45624000">
        <ele>19.000000</ele>
        <time>2010-01-01T08:06:34Z</time>
      </trkpt>
      <trkpt lat="43.85920000" lon="10.45752000">
        <ele>18.000000</ele>
        <time>2010-01-01T08:07:12Z</time>
      </trkpt>
      <trkpt lat="43.85921000" lon="10.45841000">
        <ele>18.000000</ele>
        <time>2010-01-01T08:07:38Z</time>
      </trkpt>
      <trkpt lat="43.85932000" lon="10.45945000">
        <ele>15.000000</ele>
        <time>2010-01-01T08:08:08Z</time>
      </trkpt>
      <trkpt lat="43.85944000" lon="10.46010000">
        <ele>16.000000</ele>
        <time>2010-01-01T08:08:28Z</time>
      </trkpt>
      <trkpt lat="43.85978000" lon="10.46075000">
        <ele>16.000000</ele>
        <time>2010-01-01T08:08:51Z</time>
      </trkpt>
      <trkpt lat="43.86037000" lon="10.46308000">
        <ele>15.000000</ele>
        <time>2010-01-01T08:10:02Z</time>
      </trkpt>
      <trkpt lat="43.86067940" lon="10.46350120">
        <ele>16.000000</ele>
        <time>2010-01-01T08:10:20Z</time>
      </trkpt>
      <trkpt lat="43.86112000" lon="10.46362000">
        <ele>16.000000</ele>
        <time>2010-01-01T08:10:38Z</time>
      </trkpt>
      <trkpt lat="43.86146000" lon="10.46385000">
        <ele>16.000000</ele>
        <time>2010-01-01T08:10:53Z</time>
      </trkpt>
      <trkpt lat="43.86158000" lon="10.46408000">
        <ele>16.000000</ele>
        <time>2010-01-01T08:11:01Z</time>
      </trkpt>
      <trkpt lat="43.86163000" lon="10.46435000">
        <ele>15.000000</ele>
        <time>2010-01-01T08:11:09Z</time>
      </trkpt>
      <trkpt lat="43.86171000" lon="10.46596000">
        <ele>17.000000</ele>
        <time>2010-01-01T08:11:55Z</time>
      </trkpt>
      <trkpt lat="43.86213000" lon="10.46699000">
        <ele>17.000000</ele>
        <time>2010-01-01T08:12:30Z</time>
      </trkpt>
      <trkpt lat="43.86216000" lon="10.46732000">
        <ele>17.000000</ele>
        <time>2010-01-01T08:12:39Z</time>
      </trkpt>
      <trkpt lat="43.86217000" lon="10.46821000">
        <ele>15.000000</ele>
        <time>2010-01-01T08:13:05Z</time>
      </trkpt>
      <trkpt lat="43.86233000" lon="10.46879000">
        <ele>14.000000</ele>
        <time>2010-01-01T08:13:23Z</time>
      </trkpt>
      <trkpt lat="43.86275000" lon="10.46951000">
        <ele>16.000000</ele>
        <time>2010-01-01T08:13:50Z</time>
      </trkpt>
      <trkpt lat="43.86286000" lon="10.46980000">
        <ele>16.000000</ele>
        <time>2010-01-01T08:13:59Z</time>
      </trkpt>
      <trkpt lat="43.86292000" lon="10.47025000">
        <ele>17.000000</ele>
        <time>2010-01-01T08:14:12Z</time>
      </trkpt>
      <trkpt lat="43.86282000" lon="10.47087000">
        <ele>19.000000</ele>
        <time>2010-01-01T08:14:31Z</time>
      </trkpt>
      <trkpt lat="43.86245860" lon="10.47221300">
        <ele>16.000000</ele>
        <time>2010-01-01T08:15:12Z</time>
      </trkpt>
      <trkpt lat="43.86240000" lon="10.47309000">
        <ele>18.000000</ele>
        <time>2010-01-01T08:15:37Z</time>
      </trkpt>
      <trkpt lat="43.86241000" lon="10.47441000">
        <ele>18.000000</ele>
        <time>2010-01-01T08:16:15Z</time>
      </trkpt>
      <trkpt lat="43.86247000" lon="10.47520000">
        <ele>17.000000</ele>
        <time>2010-01-01T08:16:38Z</time>
      </trkpt>
      <trkpt lat="43.86261000" lon="10.47596000">
        <ele>19.000000</ele>
        <time>2010-01-01T08:17:01Z</time>
      </trkpt>
      <trkpt lat="43.86250000" lon="10.47781000">
        <ele>17.000000</ele>
        <time>2010-01-01T08:17:55Z</time>
      </trkpt>
      <trkpt lat="43.86285000" lon="10.47923000">
        <ele>18.000000</ele>
        <time>2010-01-01T08:18:38Z</time>
      </trkpt>
      <trkpt lat="43.86286000" lon="10.47951000">
        <ele>18.000000</ele>
        <time>2010-01-01T08:18:46Z</time>
      </trkpt>
      <trkpt lat="43.86267000" lon="10.48055000">
        <ele>17.000000</ele>
        <time>2010-01-01T08:19:17Z</time>
      </trkpt>
      <trkpt lat="43.86257000" lon="10.48079000">
        <ele>16.000000</ele>
        <time>2010-01-01T08:19:25Z</time>
      </trkpt>
      <trkpt lat="43.86159000" lon="10.48225000">
        <ele>18.000000</ele>
        <time>2010-01-01T08:20:23Z</time>
      </trkpt>
      <trkpt lat="43.86155000" lon="10.48241000">
        <ele>18.000000</ele>
        <time>2010-01-01T08:20:27Z</time>
      </trkpt>
      <trkpt lat="43.86135000" lon="10.48548000">
        <ele>18.000000</ele>
        <time>2010-01-01T08:21:56Z</time>
      </trkpt>
      <trkpt lat="43.86145000" lon="10.48824000">
        <ele>17.000000</ele>
        <time>2010-01-01T08:23:16Z</time>
      </trkpt>
      <trkpt lat="43.86137000" lon="10.48940000">
        <ele>20.000000</ele>
        <time>2010-01-01T08:23:50Z</time>
      </trkpt>
      <trkpt lat="43.86130000" lon="10.48954000">
        <ele>21.000000</ele>
        <time>2010-01-01T08:23:55Z</time>
      </trkpt>
      <trkpt lat="43.86124000" lon="10.48957000">
        <ele>20.000000</ele>
        <time>2010-01-01T08:23:57Z</time>
      </trkpt>
      <trkpt lat="43.86062000" lon="10.48972000">
        <ele>19.000000</ele>
        <time>2010-01-01T08:24:22Z</time>
      </trkpt>
      <trkpt lat="43.86047000" lon="10.48983000">
        <ele>19.000000</ele>
        <time>2010-01-01T08:24:29Z</time>
      </trkpt>
      <trkpt lat="43.86037000" lon="10.49003000">
        <ele>18.000000</ele>
        <time>2010-01-01T08:24:36Z</time>
      </trkpt>
      <trkpt lat="43.86033000" lon="10.49023000">
        <ele>17.000000</ele>
        <time>2010-01-01T08:24:42Z</time>
      </trkpt>
      <trkpt lat="43.86018000" lon="10.49176000">
        <ele>22.000000</ele>
        <time>2010-01-01T08:25:27Z</time>
      </trkpt>
      <trkpt lat="43.86013000" lon="10.49265000">
        <ele>20.000000</ele>
        <time>2010-01-01T08:25:53Z</time>
      </trkpt>
      <trkpt lat="43.86014000" lon="10.49541000">
        <ele>16.000000</ele>
        <time>2010-01-01T08:27:12Z</time>
      </trkpt>
      <trkpt lat="43.86011000" lon="10.49571000">
        <ele>17.000000</ele>
        <time>2010-01-01T08:27:21Z</time>
      </trkpt>
      <trkpt lat="43.85997930" lon="10.49628850">
        <ele>17.000000</ele>
        <time>2010-01-01T08:27:38Z</time>
      </trkpt>
      <trkpt lat="43.85974000" lon="10.49713000">
        <ele>18.000000</ele>
        <time>2010-01-01T08:28:05Z</time>
      </trkpt>
      <trkpt lat="43.85959000" lon="10.49780000">
        <ele>19.000000</ele>
        <time>2010-01-01T08:28:25Z</time>
      </trkpt>
      <trkpt lat="43.85948000" lon="10.49865000">
        <ele>19.000000</ele>
        <time>2010-01-01T08:28:50Z</time>
      </trkpt>
      <trkpt lat="43.85938000" lon="10.49904000">
        <ele>19.000000</ele>
        <time>2010-01-01T08:29:02Z</time>
      </trkpt>
      <trkpt lat="43.85929000" lon="10.49922000">
        <ele>19.000000</ele>
        <time>2010-01-01T08:29:08Z</time>
      </trkpt>
      <trkpt lat="43.85890000" lon="10.49984000">
        <ele>20.000000</ele>
        <time>2010-01-01T08:29:32Z</time>
      </trkpt>
      <trkpt lat="43.85876000" lon="10.50022000">
        <ele>21.000000</ele>
        <time>2010-01-01T08:29:44Z</time>
      </trkpt>
      <trkpt lat="43.85856000" lon="10.50095000">
        <ele>21.000000</ele>
        <time>2010-01-01T08:30:07Z</time>
      </trkpt>
      <trkpt lat="43.85810000" lon="10.50242000">
        <ele>24.000000</ele>
        <time>2010-01-01T08:30:53Z</time>
      </trkpt>
      <trkpt lat="43.85770000" lon="10.50332000">
        <ele>21.000000</ele>
        <time>2010-01-01T08:31:23Z</time>
      </trkpt>
      <trkpt lat="43.85757000" lon="10.50368000">
        <ele>23.000000</ele>
        <time>2010-01-01T08:31:35Z</time>
      </trkpt>
      <trkpt lat="43.85749220" lon="10.50417420">
        <ele>24.000000</ele>
        <time>2010-01-01T08:31:50Z</time>
      </trkpt>
      <trkpt lat="43.85754630" lon="10.50471060">
        <ele>25.000000</ele>
        <time>2010-01-01T08:32:05Z</time>
      </trkpt>
      <trkpt lat="43.85777000" lon="10.50538000">
        <ele>26.000000</ele>
        <time>2010-01-01T08:32:27Z</time>
      </trkpt>
      <trkpt lat="43.85791000" lon="10.50566000">
        <ele>25.000000</ele>
        <time>2010-01-01T08:32:36Z</time>
      </trkpt>
      <trkpt lat="43.85797000" lon="10.50593000">
        <ele>23.000000</ele>
        <time>2010-01-01T08:32:45Z</time>
      </trkpt>
      <trkpt lat="43.85688000" lon="10.50740000">
        <ele>23.000000</ele>
        <time>2010-01-01T08:33:45Z</time>
      </trkpt>
      <trkpt lat="43.85667000" lon="10.50762000">
        <ele>24.000000</ele>
        <time>2010-01-01T08:33:56Z</time>
      </trkpt>
      <trkpt lat="43.85628000" lon="10.50771000">
        <ele>26.000000</ele>
        <time>2010-01-01T08:34:12Z</time>
      </trkpt>
      <trkpt lat="43.85556000" lon="10.50786000">
        <ele>26.000000</ele>
        <time>2010-01-01T08:34:41Z</time>
      </trkpt>
      <trkpt lat="43.85517000" lon="10.50785000">
        <ele>24.000000</ele>
        <time>2010-01-01T08:34:57Z</time>
      </trkpt>
      <trkpt lat="43.85504000" lon="10.50784000">
        <ele>24.000000</ele>
        <time>2010-01-01T08:35:02Z</time>
      </trkpt>
      <trkpt lat="43.85483000" lon="10.50780000">
        <ele>22.000000</ele>
        <time>2010-01-01T08:35:10Z</time>
      </trkpt>
      <trkpt lat="43.85377000" lon="10.50749000">
        <ele>21.000000</ele>
        <time>2010-01-01T08:35:54Z</time>
      </trkpt>
      <trkpt lat="43.85328000" lon="10.50745000">
        <ele>22.000000</ele>
        <time>2010-01-01T08:36:13Z</time>
      </trkpt>
      <trkpt lat="43.85292000" lon="10.50741000">
        <ele>22.000000</ele>
        <time>2010-01-01T08:36:28Z</time>
      </trkpt>
      <trkpt lat="43.85141000" lon="10.50721000">
        <ele>23.000000</ele>
        <time>2010-01-01T08:37:28Z</time>
      </trkpt>
      <trkpt lat="43.85081000" lon="10.50714000">
        <ele>21.000000</ele>
        <time>2010-01-01T08:37:53Z</time>
      </trkpt>
      <trkpt lat="43.84920000" lon="10.50696000">
        <ele>23.000000</ele>
        <time>2010-01-01T08:38:57Z</time>
      </trkpt>
      <trkpt lat="43.84895000" lon="10.50680000">
        <ele>24.000000</ele>
        <time>2010-01-01T08:39:08Z</time>
      </trkpt>
      <trkpt lat="43.84882000" lon="10.50666000">
        <ele>23.000000</ele>
        <time>2010-01-01T08:39:15Z</time>
      </trkpt>
      <trkpt lat="43.84875000" lon="10.50641000">
        <ele>22.000000</ele>
        <time>2010-01-01T08:39:23Z</time>
      </trkpt>
      <trkpt lat="43.84853300" lon="10.50636290">
        <ele>21.000000</ele>
        <time>2010-01-01T08:39:31Z</time>
      </trkpt>
      <trkpt lat="43.84844000" lon="10.50663000">
        <ele>22.000000</ele>
        <time>2010-01-01T08:39:40Z</time>
      </trkpt>
      <trkpt lat="43.84814000" lon="10.50687000">
        <ele>22.000000</ele>
        <time>2010-01-01T08:39:54Z</time>
      </trkpt>
      <trkpt lat="43.84802000" lon="10.50696000">
        <ele>22.000000</ele>
        <time>2010-01-01T08:39:59Z</time>
      </trkpt>
      <trkpt lat="43.84785000" lon="10.50709000">
        <ele>22.000000</ele>
        <time>2010-01-01T08:40:07Z</time>
      </trkpt>
      <trkpt lat="43.84766000" lon="10.50724000">
        <ele>21.000000</ele>
        <time>2010-01-01T08:40:16Z</time>
      </trkpt>
      <trkpt lat="43.84760450" lon="10.50730160">
        <ele>21.000000</ele>
        <time>2010-01-01T08:40:19Z</time>
      </trkpt>
      <trkpt lat="43.84760000" lon="10.50735000">
        <ele>21.000000</ele>
        <time>2010-01-01T08:40:20Z</time>
      </trkpt>
      <trkpt lat="43.84742000" lon="10.50755000">
        <ele>21.000000</ele>
        <time>2010-01-01T08:40:29Z</time>
      </trkpt>
      <trkpt lat="43.84736000" lon="10.50772000">
        <ele>21.000000</ele>
        <time>2010-01-01T08:40:35Z</time>
      </trkpt>
      <trkpt lat="43.84707000" lon="10.50757000">
        <ele>22.000000</ele>
        <time>2010-01-01T08:40:47Z</time>
      </trkpt>
      <trkpt lat="43.84693000" lon="10.50760000">
        <ele>22.000000</ele>
        <time>2010-01-01T08:40:53Z</time>
      </trkpt>
      <trkpt lat="43.84679000" lon="10.50772000">
        <ele>22.000000</ele>
        <time>2010-01-01T08:40:59Z</time>
      </trkpt>
      <trkpt lat="43.84643000" lon="10.50722000">
        <ele>23.000000</ele>
        <time>2010-01-01T08:41:20Z</time>
      </trkpt>
      <trkpt lat="43.84637000" lon="10.50702000">
        <ele>24.000000</ele>
        <time>2010-01-01T08:41:26Z</time>
      </trkpt>
      <trkpt lat="43.84622000" lon="10.50665000">
        <ele>26.000000</ele>
        <time>2010-01-01T08:41:38Z</time>
      </trkpt>
      <trkpt lat="43.84582000" lon="10.50591000">
        <ele>26.000000</ele>
        <time>2010-01-01T08:42:05Z</time>
      </trkpt>
      <trkpt lat="43.84576000" lon="10.50608000">
        <ele>25.000000</ele>
        <time>2010-01-01T08:42:10Z</time>
      </trkpt>
      <trkpt lat="43.84572000" lon="10.50630000">
        <ele>24.000000</ele>
        <time>2010-01-01T08:42:17Z</time>
      </trkpt>
      <trkpt lat="43.84555790" lon="10.50622880">
        <ele>24.000000</ele>
        <time>2010-01-01T08:42:24Z</time>
      </trkpt>
      <trkpt lat="43.84532580" lon="10.50574600">
        <ele>26.000000</ele>
        <time>2010-01-01T08:42:41Z</time>
      </trkpt>
      <trkpt lat="43.84530000" lon="10.50542000">
        <ele>27.000000</ele>
        <time>2010-01-01T08:42:50Z</time>
      </trkpt>
      <trkpt lat="43.84549000" lon="10.50522000">
        <ele>28.000000</ele>
        <time>2010-01-01T08:43:00Z</time>
      </trkpt>
      <trkpt lat="43.84492000" lon="10.50438000">
        <ele>29.000000</ele>
        <time>2010-01-01T08:43:33Z</time>
      </trkpt>
      <trkpt lat="43.84471000" lon="10.50426000">
        <ele>29.000000</ele>
        <time>2010-01-01T08:43:42Z</time>
      </trkpt>
      <trkpt lat="43.84379000" lon="10.50411000">
        <ele>27.000000</ele>
        <time>2010-01-01T08:44:19Z</time>
      </trkpt>
      <trkpt lat="43.84336000" lon="10.50410000">
        <ele>30.000000</ele>
        <time>2010-01-01T08:44:36Z</time>
      </trkpt>
      <trkpt lat="43.84266000" lon="10.50404000">
        <ele>30.000000</ele>
        <time>2010-01-01T08:45:04Z</time>
      </trkpt>
      <trkpt lat="43.84267000" lon="10.50417000">
        <ele>31.000000</ele>
        <time>2010-01-01T08:45:08Z</time>
      </trkpt>
      <trkpt lat="43.84259000" lon="10.50506000">
        <ele>29.000000</ele>
        <time>2010-01-01T08:45:34Z</time>
      </trkpt>
      <trkpt lat="43.84258000" lon="10.50525000">
        <ele>28.000000</ele>
        <time>2010-01-01T08:45:39Z</time>
      </trkpt>
      <trkpt lat="43.84241000" lon="10.50521000">
        <ele>28.000000</ele>
        <time>2010-01-01T08:45:46Z</time>
      </trkpt>
      <trkpt lat="43.84224000" lon="10.50513000">
        <ele>29.000000</ele>
        <time>2010-01-01T08:45:54Z</time>
      </trkpt>
      <trkpt lat="43.84212000" lon="10.50504000">
        <ele>29.000000</ele>
        <time>2010-01-01T08:45:59Z</time>
      </trkpt>
      <trkpt lat="43.84194000" lon="10.50485000">
        <ele>28.000000</ele>
        <time>2010-01-01T08:46:08Z</time>
      </trkpt>
      <trkpt lat="43.84180000" lon="10.50476000">
        <ele>27.000000</ele>
        <time>2010-01-01T08:46:14Z</time>
      </trkpt>
      <trkpt lat="43.84165000" lon="10.50472000">
        <ele>25.000000</ele>
        <time>2010-01-01T08:46:20Z</time>
      </trkpt>
      <trkpt lat="43.84164250" lon="10.50502710">
        <ele>25.000000</ele>
        <time>2010-01-01T08:46:29Z</time>
      </trkpt>
      <trkpt lat="43.84161540" lon="10.50537040">
        <ele>23.000000</ele>
        <time>2010-01-01T08:46:39Z</time>
      </trkpt>
      <trkpt lat="43.84091890" lon="10.50527930">
        <ele>19.000000</ele>
        <time>2010-01-01T08:47:07Z</time>
      </trkpt>
      <trkpt lat="43.84101950" lon="10.50422250">
        <ele>23.000000</ele>
        <time>2010-01-01T08:47:38Z</time>
      </trkpt>
      <trkpt lat="43.84104280" lon="10.50337490">
        <ele>23.000000</ele>
        <time>2010-01-01T08:48:02Z</time>
      </trkpt>
      <trkpt lat="43.84089960" lon="10.50283310">
        <ele>23.000000</ele>
        <time>2010-01-01T08:48:19Z</time>
      </trkpt>
      <trkpt lat="43.84040000" lon="10.50256000">
        <ele>24.000000</ele>
        <time>2010-01-01T08:48:41Z</time>
      </trkpt>
      <trkpt lat="43.84020000" lon="10.50247000">
        <ele>23.000000</ele>
        <time>2010-01-01T08:48:49Z</time>
      </trkpt>
      <trkpt lat="43.83999000" lon="10.50244000">
        <ele>22.000000</ele>
        <time>2010-01-01T08:48:58Z</time>
      </trkpt>
      <trkpt lat="43.83999000" lon="10.50248000">
        <ele>22.000000</ele>
        <time>2010-01-01T08:48:59Z</time>
      </trkpt>
      <trkpt lat="43.83937000" lon="10.50243000">
        <ele>21.000000</ele>
        <time>2010-01-01T08:49:24Z</time>
      </trkpt>
      <trkpt lat="43.83940000" lon="10.50178000">
        <ele>21.000000</ele>
        <time>2010-01-01T08:49:42Z</time>
      </trkpt>
      <trkpt lat="43.83880000" lon="10.50168000">
        <ele>22.000000</ele>
        <time>2010-01-01T08:50:07Z</time>
      </trkpt>
      <trkpt lat="43.83886000" lon="10.50135000">
        <ele>21.000000</ele>
        <time>2010-01-01T08:50:16Z</time>
      </trkpt>
      <trkpt lat="43.83976000" lon="10.49887000">
        <ele>21.000000</ele>
        <time>2010-01-01T08:51:37Z</time>
      </trkpt>
      <trkpt lat="43.84030000" lon="10.49737000">
        <ele>25.000000</ele>
        <time>2010-01-01T08:52:25Z</time>
      </trkpt>
      <trkpt lat="43.84046000" lon="10.49701000">
        <ele>24.000000</ele>
        <time>2010-01-01T08:52:37Z</time>
      </trkpt>
      <trkpt lat="43.84057000" lon="10.49683000">
        <ele>24.000000</ele>
        <time>2010-01-01T08:52:44Z</time>
      </trkpt>
      <trkpt lat="43.84224000" lon="10.49596000">
        <ele>19.000000</ele>
        <time>2010-01-01T08:53:55Z</time>
      </trkpt>
      <trkpt lat="43.84287000" lon="10.49564000">
        <ele>21.000000</ele>
        <time>2010-01-01T08:54:22Z</time>
      </trkpt>
      <trkpt lat="43.84297000" lon="10.49561000">
        <ele>22.000000</ele>
        <time>2010-01-01T08:54:26Z</time>
      </trkpt>
      <trkpt lat="43.84326000" lon="10.49563000">
        <ele>24.000000</ele>
        <time>2010-01-01T08:54:38Z</time>
      </trkpt>
      <trkpt lat="43.84316000" lon="10.49702000">
        <ele>18.000000</ele>
        <time>2010-01-01T08:55:18Z</time>
      </trkpt>
      <trkpt lat="43.84314000" lon="10.49714000">
        <ele>19.000000</ele>
        <time>2010-01-01T08:55:22Z</time>
      </trkpt>
      <trkpt lat="43.84257000" lon="10.49633000">
        <ele>18.000000</ele>
        <time>2010-01-01T08:55:54Z</time>
      </trkpt>
      <trkpt lat="43.84239000" lon="10.49596000">
        <ele>19.000000</ele>
        <time>2010-01-01T08:56:07Z</time>
      </trkpt>
      <trkpt lat="43.84230000" lon="10.49561000">
        <ele>19.000000</ele>
        <time>2010-01-01T08:56:18Z</time>
      </trkpt>
      <trkpt lat="43.84226000" lon="10.49534000">
        <ele>19.000000</ele>
        <time>2010-01-01T08:56:26Z</time>
      </trkpt>
      <trkpt lat="43.84215000" lon="10.49517000">
        <ele>18.000000</ele>
        <time>2010-01-01T08:56:33Z</time>
      </trkpt>
      <trkpt lat="43.84219000" lon="10.49512000">
        <ele>18.000000</ele>
        <time>2010-01-01T08:56:35Z</time>
      </trkpt>
      <trkpt lat="43.84222000" lon="10.49482000">
        <ele>18.000000</ele>
        <time>2010-01-01T08:56:44Z</time>
      </trkpt>
      <trkpt lat="43.84240000" lon="10.49412000">
        <ele>16.000000</ele>
        <time>2010-01-01T08:57:05Z</time>
      </trkpt>
      <trkpt lat="43.84306000" lon="10.49121000">
        <ele>17.000000</ele>
        <time>2010-01-01T08:58:33Z</time>
      </trkpt>
      <trkpt lat="43.84231000" lon="10.49073000">
        <ele>17.000000</ele>
        <time>2010-01-01T08:59:06Z</time>
      </trkpt>
      <trkpt lat="43.84197000" lon="10.49056000">
        <ele>17.000000</ele>
        <time>2010-01-01T08:59:21Z</time>
      </trkpt>
      <trkpt lat="43.84080000" lon="10.48992000">
        <ele>16.000000</ele>
        <time>2010-01-01T09:00:11Z</time>
      </trkpt>
      <trkpt lat="43.84071000" lon="10.48976000">
        <ele>16.000000</ele>
        <time>2010-01-01T09:00:17Z</time>
      </trkpt>
      <trkpt lat="43.84065000" lon="10.48981000">
        <ele>16.000000</ele>
        <time>2010-01-01T09:00:20Z</time>
      </trkpt>
      <trkpt lat="43.83996000" lon="10.48948000">
        <ele>14.000000</ele>
        <time>2010-01-01T09:00:49Z</time>
      </trkpt>
      <trkpt lat="43.83980000" lon="10.48935000">
        <ele>14.000000</ele>
        <time>2010-01-01T09:00:56Z</time>
      </trkpt>
      <trkpt lat="43.83965000" lon="10.48917000">
        <ele>15.000000</ele>
        <time>2010-01-01T09:01:04Z</time>
      </trkpt>
      <trkpt lat="43.83952000" lon="10.48906000">
        <ele>15.000000</ele>
        <time>2010-01-01T09:01:10Z</time>
      </trkpt>
      <trkpt lat="43.83891000" lon="10.48889000">
        <ele>14.000000</ele>
        <time>2010-01-01T09:01:35Z</time>
      </trkpt>
      <trkpt lat="43.83867000" lon="10.48887000">
        <ele>15.000000</ele>
        <time>2010-01-01T09:01:45Z</time>
      </trkpt>
      <trkpt lat="43.83824000" lon="10.48889000">
        <ele>16.000000</ele>
        <time>2010-01-01T09:02:02Z</time>
      </trkpt>
      <trkpt lat="43.83811000" lon="10.48888000">
        <ele>15.000000</ele>
        <time>2010-01-01T09:02:07Z</time>
      </trkpt>
      <trkpt lat="43.83799000" lon="10.48881000">
        <ele>15.000000</ele>
        <time>2010-01-01T09:02:12Z</time>
      </trkpt>
      <trkpt lat="43.83794000" lon="10.48875000">
        <ele>15.000000</ele>
        <time>2010-01-01T09:02:15Z</time>
      </trkpt>
      <trkpt lat="43.83774000" lon="10.48828000">
        <ele>14.000000</ele>
        <time>2010-01-01T09:02:31Z</time>
      </trkpt>
      <trkpt lat="43.83759000" lon="10.48831000">
        <ele>14.000000</ele>
        <time>2010-01-01T09:02:37Z</time>
      </trkpt>
      <trkpt lat="43.83709000" lon="10.48832000">
        <ele>14.000000</ele>
        <time>2010-01-01T09:02:57Z</time>
      </trkpt>
      <trkpt lat="43.83631000" lon="10.48824000">
        <ele>14.000000</ele>
        <time>2010-01-01T09:03:28Z</time>
      </trkpt>
      <trkpt lat="43.83555000" lon="10.48805000">
        <ele>15.000000</ele>
        <time>2010-01-01T09:03:59Z</time>
      </trkpt>
      <trkpt lat="43.83488270" lon="10.48797360">
        <ele>15.000000</ele>
        <time>2010-01-01T09:04:26Z</time>
      </trkpt>
    </trkseg>
  </trk>
</gpx>

